<?xml version="1.0" encoding="UTF-8" standalone="no" ?>
<gpx xmlns="http://www.topografix.com/GPX/1/1" xmlns:xsi="http://www.w3.org/2001/XMLSchema-instance" xsi:schemaLocation="http://www.topografix.com/GPX/1/1 http://www.topografix.com/GPX/1/1/gpx.xsd" version="1.1" creator="VisuGPX - https://www.visugpx.com">
  <metadata>
    <name>rando ecole</name>
    <desc><![CDATA[Runmeter Randonnée 20 juin 2017 à 10:12:54]]></desc>
  </metadata>
  <trk>
    <name><![CDATA[Nouveau parcours]]></name>
    <trkseg>
      <trkpt lat="47.79407" lon="0.37279">
        <ele>133.4</ele>
        <time>2017-06-20T08:12:54Z</time>
      </trkpt>
      <trkpt lat="47.79407" lon="0.37277">
        <ele>133.3</ele>
        <time>2017-06-20T08:12:55Z</time>
      </trkpt>
      <trkpt lat="47.79409" lon="0.37271">
        <ele>130</ele>
        <time>2017-06-20T08:13:17Z</time>
      </trkpt>
      <trkpt lat="47.79406" lon="0.37272">
        <ele>129.3</ele>
        <time>2017-06-20T08:13:22Z</time>
      </trkpt>
      <trkpt lat="47.79402" lon="0.37272">
        <ele>129.5</ele>
        <time>2017-06-20T08:13:32Z</time>
      </trkpt>
      <trkpt lat="47.7941" lon="0.37273">
        <ele>132.8</ele>
        <time>2017-06-20T08:17:05Z</time>
      </trkpt>
      <trkpt lat="47.79413" lon="0.3727">
        <ele>133.4</ele>
        <time>2017-06-20T08:17:48Z</time>
      </trkpt>
      <trkpt lat="47.79413" lon="0.3727">
        <ele>133</ele>
        <time>2017-06-20T08:17:51Z</time>
      </trkpt>
      <trkpt lat="47.79411" lon="0.3727">
        <ele>132.4</ele>
        <time>2017-06-20T08:17:56Z</time>
      </trkpt>
      <trkpt lat="47.79408" lon="0.37268">
        <ele>130.7</ele>
        <time>2017-06-20T08:18:11Z</time>
      </trkpt>
      <trkpt lat="47.79409" lon="0.37269">
        <ele>130</ele>
        <time>2017-06-20T08:18:17Z</time>
      </trkpt>
      <trkpt lat="47.79414" lon="0.37273">
        <ele>134.6</ele>
        <time>2017-06-20T08:19:12Z</time>
      </trkpt>
      <trkpt lat="47.79414" lon="0.37274">
        <ele>134.6</ele>
        <time>2017-06-20T08:19:13Z</time>
      </trkpt>
      <trkpt lat="47.79414" lon="0.37271">
        <ele>134.4</ele>
        <time>2017-06-20T08:19:20Z</time>
      </trkpt>
      <trkpt lat="47.79399" lon="0.37264">
        <ele>134</ele>
        <time>2017-06-20T08:19:34Z</time>
      </trkpt>
      <trkpt lat="47.79386" lon="0.37258">
        <ele>133.7</ele>
        <time>2017-06-20T08:19:46Z</time>
      </trkpt>
      <trkpt lat="47.79372" lon="0.37256">
        <ele>133.4</ele>
        <time>2017-06-20T08:19:55Z</time>
      </trkpt>
      <trkpt lat="47.79358" lon="0.37254">
        <ele>133.2</ele>
        <time>2017-06-20T08:20:04Z</time>
      </trkpt>
      <trkpt lat="47.79347" lon="0.37242">
        <ele>132.7</ele>
        <time>2017-06-20T08:20:23Z</time>
      </trkpt>
      <trkpt lat="47.79336" lon="0.37226">
        <ele>132</ele>
        <time>2017-06-20T08:20:46Z</time>
      </trkpt>
      <trkpt lat="47.79324" lon="0.37219">
        <ele>131.7</ele>
        <time>2017-06-20T08:20:57Z</time>
      </trkpt>
      <trkpt lat="47.79317" lon="0.37215">
        <ele>131.6</ele>
        <time>2017-06-20T08:21:03Z</time>
      </trkpt>
      <trkpt lat="47.7931" lon="0.37211">
        <ele>131.3</ele>
        <time>2017-06-20T08:21:09Z</time>
      </trkpt>
      <trkpt lat="47.79297" lon="0.37207">
        <ele>130.8</ele>
        <time>2017-06-20T08:21:18Z</time>
      </trkpt>
      <trkpt lat="47.79283" lon="0.37205">
        <ele>130</ele>
        <time>2017-06-20T08:21:34Z</time>
      </trkpt>
      <trkpt lat="47.79269" lon="0.37208">
        <ele>129.4</ele>
        <time>2017-06-20T08:21:47Z</time>
      </trkpt>
      <trkpt lat="47.79257" lon="0.37218">
        <ele>128.7</ele>
        <time>2017-06-20T08:22:01Z</time>
      </trkpt>
      <trkpt lat="47.79252" lon="0.37219">
        <ele>128.5</ele>
        <time>2017-06-20T08:22:05Z</time>
      </trkpt>
      <trkpt lat="47.79243" lon="0.37222">
        <ele>128.8</ele>
        <time>2017-06-20T08:22:14Z</time>
      </trkpt>
      <trkpt lat="47.79241" lon="0.37218">
        <ele>130.8</ele>
        <time>2017-06-20T08:23:16Z</time>
      </trkpt>
      <trkpt lat="47.79227" lon="0.37218">
        <ele>131.1</ele>
        <time>2017-06-20T08:23:25Z</time>
      </trkpt>
      <trkpt lat="47.79217" lon="0.37222">
        <ele>131.8</ele>
        <time>2017-06-20T08:23:46Z</time>
      </trkpt>
      <trkpt lat="47.79218" lon="0.37243">
        <ele>132.7</ele>
        <time>2017-06-20T08:24:14Z</time>
      </trkpt>
      <trkpt lat="47.7922" lon="0.37264">
        <ele>133.1</ele>
        <time>2017-06-20T08:24:26Z</time>
      </trkpt>
      <trkpt lat="47.79223" lon="0.37284">
        <ele>133.8</ele>
        <time>2017-06-20T08:24:45Z</time>
      </trkpt>
      <trkpt lat="47.79225" lon="0.37289">
        <ele>133.9</ele>
        <time>2017-06-20T08:24:49Z</time>
      </trkpt>
      <trkpt lat="47.79229" lon="0.37303">
        <ele>134.7</ele>
        <time>2017-06-20T08:24:59Z</time>
      </trkpt>
      <trkpt lat="47.79235" lon="0.37322">
        <ele>135.7</ele>
        <time>2017-06-20T08:25:13Z</time>
      </trkpt>
      <trkpt lat="47.79233" lon="0.37344">
        <ele>136.4</ele>
        <time>2017-06-20T08:25:23Z</time>
      </trkpt>
      <trkpt lat="47.79234" lon="0.37364">
        <ele>135.4</ele>
        <time>2017-06-20T08:25:34Z</time>
      </trkpt>
      <trkpt lat="47.79234" lon="0.37364">
        <ele>135.4</ele>
        <time>2017-06-20T08:25:35Z</time>
      </trkpt>
      <trkpt lat="47.79233" lon="0.37383">
        <ele>138.8</ele>
        <time>2017-06-20T08:25:57Z</time>
      </trkpt>
      <trkpt lat="47.79233" lon="0.37384">
        <ele>139</ele>
        <time>2017-06-20T08:25:58Z</time>
      </trkpt>
      <trkpt lat="47.79229" lon="0.37394">
        <ele>140.5</ele>
        <time>2017-06-20T08:26:10Z</time>
      </trkpt>
      <trkpt lat="47.7923" lon="0.37409">
        <ele>141.8</ele>
        <time>2017-06-20T08:26:21Z</time>
      </trkpt>
      <trkpt lat="47.7923" lon="0.37414">
        <ele>142</ele>
        <time>2017-06-20T08:26:24Z</time>
      </trkpt>
      <trkpt lat="47.79229" lon="0.37433">
        <ele>142.8</ele>
        <time>2017-06-20T08:26:37Z</time>
      </trkpt>
      <trkpt lat="47.79235" lon="0.37439">
        <ele>143.7</ele>
        <time>2017-06-20T08:26:54Z</time>
      </trkpt>
      <trkpt lat="47.79228" lon="0.37439">
        <ele>144.5</ele>
        <time>2017-06-20T08:27:08Z</time>
      </trkpt>
      <trkpt lat="47.79231" lon="0.37459">
        <ele>146.1</ele>
        <time>2017-06-20T08:27:36Z</time>
      </trkpt>
      <trkpt lat="47.79233" lon="0.37463">
        <ele>146.2</ele>
        <time>2017-06-20T08:27:39Z</time>
      </trkpt>
      <trkpt lat="47.79238" lon="0.37477">
        <ele>142.4</ele>
        <time>2017-06-20T08:27:50Z</time>
      </trkpt>
      <trkpt lat="47.79238" lon="0.37479">
        <ele>142.3</ele>
        <time>2017-06-20T08:27:51Z</time>
      </trkpt>
      <trkpt lat="47.79242" lon="0.37497">
        <ele>143.8</ele>
        <time>2017-06-20T08:28:02Z</time>
      </trkpt>
      <trkpt lat="47.7925" lon="0.37518">
        <ele>146.1</ele>
        <time>2017-06-20T08:28:18Z</time>
      </trkpt>
      <trkpt lat="47.79252" lon="0.37533">
        <ele>146.7</ele>
        <time>2017-06-20T08:28:23Z</time>
      </trkpt>
      <trkpt lat="47.79252" lon="0.37539">
        <ele>146.8</ele>
        <time>2017-06-20T08:28:25Z</time>
      </trkpt>
      <trkpt lat="47.79253" lon="0.3755">
        <ele>147.2</ele>
        <time>2017-06-20T08:28:35Z</time>
      </trkpt>
      <trkpt lat="47.79255" lon="0.37572">
        <ele>148.7</ele>
        <time>2017-06-20T08:29:09Z</time>
      </trkpt>
      <trkpt lat="47.79264" lon="0.37588">
        <ele>149.1</ele>
        <time>2017-06-20T08:29:19Z</time>
      </trkpt>
      <trkpt lat="47.79273" lon="0.37604">
        <ele>149.7</ele>
        <time>2017-06-20T08:29:34Z</time>
      </trkpt>
      <trkpt lat="47.79273" lon="0.37606">
        <ele>149.8</ele>
        <time>2017-06-20T08:29:35Z</time>
      </trkpt>
      <trkpt lat="47.79274" lon="0.37626">
        <ele>151.7</ele>
        <time>2017-06-20T08:29:45Z</time>
      </trkpt>
      <trkpt lat="47.79276" lon="0.37628">
        <ele>154</ele>
        <time>2017-06-20T08:29:57Z</time>
      </trkpt>
      <trkpt lat="47.79278" lon="0.3763">
        <ele>157.5</ele>
        <time>2017-06-20T08:30:08Z</time>
      </trkpt>
      <trkpt lat="47.79281" lon="0.37633">
        <ele>157.6</ele>
        <time>2017-06-20T08:30:23Z</time>
      </trkpt>
      <trkpt lat="47.79283" lon="0.37653">
        <ele>157.6</ele>
        <time>2017-06-20T08:30:41Z</time>
      </trkpt>
      <trkpt lat="47.79283" lon="0.37655">
        <ele>157.4</ele>
        <time>2017-06-20T08:30:43Z</time>
      </trkpt>
      <trkpt lat="47.7928" lon="0.37669">
        <ele>156.5</ele>
        <time>2017-06-20T08:30:49Z</time>
      </trkpt>
      <trkpt lat="47.79285" lon="0.37689">
        <ele>155</ele>
        <time>2017-06-20T08:31:00Z</time>
      </trkpt>
      <trkpt lat="47.79284" lon="0.37693">
        <ele>154.6</ele>
        <time>2017-06-20T08:31:03Z</time>
      </trkpt>
      <trkpt lat="47.79284" lon="0.3771">
        <ele>154.2</ele>
        <time>2017-06-20T08:31:15Z</time>
      </trkpt>
      <trkpt lat="47.79283" lon="0.37712">
        <ele>154.1</ele>
        <time>2017-06-20T08:31:18Z</time>
      </trkpt>
      <trkpt lat="47.79288" lon="0.37718">
        <ele>153.8</ele>
        <time>2017-06-20T08:31:28Z</time>
      </trkpt>
      <trkpt lat="47.79291" lon="0.37738">
        <ele>153.3</ele>
        <time>2017-06-20T08:31:43Z</time>
      </trkpt>
      <trkpt lat="47.7929" lon="0.37759">
        <ele>152.7</ele>
        <time>2017-06-20T08:32:04Z</time>
      </trkpt>
      <trkpt lat="47.79296" lon="0.37777">
        <ele>152.4</ele>
        <time>2017-06-20T08:32:12Z</time>
      </trkpt>
      <trkpt lat="47.79296" lon="0.37787">
        <ele>152.2</ele>
        <time>2017-06-20T08:32:20Z</time>
      </trkpt>
      <trkpt lat="47.79291" lon="0.37806">
        <ele>151.8</ele>
        <time>2017-06-20T08:32:33Z</time>
      </trkpt>
      <trkpt lat="47.79298" lon="0.37814">
        <ele>151.2</ele>
        <time>2017-06-20T08:32:48Z</time>
      </trkpt>
      <trkpt lat="47.79301" lon="0.37816">
        <ele>149.7</ele>
        <time>2017-06-20T08:32:53Z</time>
      </trkpt>
      <trkpt lat="47.79304" lon="0.37812">
        <ele>148.2</ele>
        <time>2017-06-20T08:32:59Z</time>
      </trkpt>
      <trkpt lat="47.79313" lon="0.37804">
        <ele>150.8</ele>
        <time>2017-06-20T08:33:16Z</time>
      </trkpt>
      <trkpt lat="47.79327" lon="0.37801">
        <ele>152.4</ele>
        <time>2017-06-20T08:33:27Z</time>
      </trkpt>
      <trkpt lat="47.79328" lon="0.378">
        <ele>152.6</ele>
        <time>2017-06-20T08:33:28Z</time>
      </trkpt>
      <trkpt lat="47.79333" lon="0.378">
        <ele>154.3</ele>
        <time>2017-06-20T08:33:36Z</time>
      </trkpt>
      <trkpt lat="47.79332" lon="0.37804">
        <ele>156.2</ele>
        <time>2017-06-20T08:33:45Z</time>
      </trkpt>
      <trkpt lat="47.79332" lon="0.37809">
        <ele>159.9</ele>
        <time>2017-06-20T08:33:54Z</time>
      </trkpt>
      <trkpt lat="47.79332" lon="0.3781">
        <ele>160.5</ele>
        <time>2017-06-20T08:33:56Z</time>
      </trkpt>
      <trkpt lat="47.79332" lon="0.37814">
        <ele>156.5</ele>
        <time>2017-06-20T08:34:12Z</time>
      </trkpt>
      <trkpt lat="47.79338" lon="0.37802">
        <ele>156.8</ele>
        <time>2017-06-20T08:34:18Z</time>
      </trkpt>
      <trkpt lat="47.79338" lon="0.378">
        <ele>156.7</ele>
        <time>2017-06-20T08:34:19Z</time>
      </trkpt>
      <trkpt lat="47.79337" lon="0.37794">
        <ele>156.3</ele>
        <time>2017-06-20T08:34:22Z</time>
      </trkpt>
      <trkpt lat="47.79344" lon="0.37796">
        <ele>153</ele>
        <time>2017-06-20T08:34:50Z</time>
      </trkpt>
      <trkpt lat="47.79348" lon="0.37793">
        <ele>152.3</ele>
        <time>2017-06-20T08:34:56Z</time>
      </trkpt>
      <trkpt lat="47.79351" lon="0.37791">
        <ele>153.2</ele>
        <time>2017-06-20T08:35:02Z</time>
      </trkpt>
      <trkpt lat="47.79358" lon="0.37787">
        <ele>156.5</ele>
        <time>2017-06-20T08:35:13Z</time>
      </trkpt>
      <trkpt lat="47.79362" lon="0.37786">
        <ele>158</ele>
        <time>2017-06-20T08:35:18Z</time>
      </trkpt>
      <trkpt lat="47.79371" lon="0.37783">
        <ele>160.7</ele>
        <time>2017-06-20T08:35:29Z</time>
      </trkpt>
      <trkpt lat="47.79378" lon="0.3778">
        <ele>162.4</ele>
        <time>2017-06-20T08:35:36Z</time>
      </trkpt>
      <trkpt lat="47.79385" lon="0.37777">
        <ele>164</ele>
        <time>2017-06-20T08:35:43Z</time>
      </trkpt>
      <trkpt lat="47.79387" lon="0.37776">
        <ele>164.9</ele>
        <time>2017-06-20T08:35:47Z</time>
      </trkpt>
      <trkpt lat="47.79399" lon="0.37772">
        <ele>165.8</ele>
        <time>2017-06-20T08:36:03Z</time>
      </trkpt>
      <trkpt lat="47.79411" lon="0.37764">
        <ele>166.4</ele>
        <time>2017-06-20T08:36:14Z</time>
      </trkpt>
      <trkpt lat="47.79417" lon="0.37761">
        <ele>167.1</ele>
        <time>2017-06-20T08:36:25Z</time>
      </trkpt>
      <trkpt lat="47.79419" lon="0.3776">
        <ele>168.5</ele>
        <time>2017-06-20T08:36:30Z</time>
      </trkpt>
      <trkpt lat="47.79422" lon="0.37758">
        <ele>168.6</ele>
        <time>2017-06-20T08:36:35Z</time>
      </trkpt>
      <trkpt lat="47.79425" lon="0.37757">
        <ele>169.2</ele>
        <time>2017-06-20T08:36:40Z</time>
      </trkpt>
      <trkpt lat="47.79435" lon="0.37748">
        <ele>171.4</ele>
        <time>2017-06-20T08:36:58Z</time>
      </trkpt>
      <trkpt lat="47.79449" lon="0.37746">
        <ele>172.7</ele>
        <time>2017-06-20T08:37:08Z</time>
      </trkpt>
      <trkpt lat="47.7945" lon="0.37746">
        <ele>172.8</ele>
        <time>2017-06-20T08:37:09Z</time>
      </trkpt>
      <trkpt lat="47.79458" lon="0.37745">
        <ele>172.9</ele>
        <time>2017-06-20T08:37:21Z</time>
      </trkpt>
      <trkpt lat="47.79463" lon="0.37743">
        <ele>171.2</ele>
        <time>2017-06-20T08:37:27Z</time>
      </trkpt>
      <trkpt lat="47.79465" lon="0.37737">
        <ele>169.9</ele>
        <time>2017-06-20T08:37:32Z</time>
      </trkpt>
      <trkpt lat="47.79469" lon="0.37729">
        <ele>170.7</ele>
        <time>2017-06-20T08:37:39Z</time>
      </trkpt>
      <trkpt lat="47.79469" lon="0.37739">
        <ele>172.7</ele>
        <time>2017-06-20T08:37:57Z</time>
      </trkpt>
      <trkpt lat="47.79482" lon="0.37742">
        <ele>174</ele>
        <time>2017-06-20T08:38:08Z</time>
      </trkpt>
      <trkpt lat="47.79493" lon="0.37735">
        <ele>175.4</ele>
        <time>2017-06-20T08:38:21Z</time>
      </trkpt>
      <trkpt lat="47.79494" lon="0.37733">
        <ele>175.3</ele>
        <time>2017-06-20T08:38:23Z</time>
      </trkpt>
      <trkpt lat="47.79508" lon="0.37732">
        <ele>174.9</ele>
        <time>2017-06-20T08:38:39Z</time>
      </trkpt>
      <trkpt lat="47.79521" lon="0.37722">
        <ele>174.6</ele>
        <time>2017-06-20T08:38:55Z</time>
      </trkpt>
      <trkpt lat="47.79534" lon="0.37712">
        <ele>173.9</ele>
        <time>2017-06-20T08:39:24Z</time>
      </trkpt>
      <trkpt lat="47.79548" lon="0.37706">
        <ele>173.5</ele>
        <time>2017-06-20T08:39:39Z</time>
      </trkpt>
      <trkpt lat="47.7956" lon="0.37699">
        <ele>173.3</ele>
        <time>2017-06-20T08:39:49Z</time>
      </trkpt>
      <trkpt lat="47.79573" lon="0.3769">
        <ele>172.8</ele>
        <time>2017-06-20T08:40:10Z</time>
      </trkpt>
      <trkpt lat="47.79576" lon="0.37689">
        <ele>172.6</ele>
        <time>2017-06-20T08:40:19Z</time>
      </trkpt>
      <trkpt lat="47.79574" lon="0.37683">
        <ele>172.4</ele>
        <time>2017-06-20T08:40:26Z</time>
      </trkpt>
      <trkpt lat="47.79577" lon="0.37686">
        <ele>172.1</ele>
        <time>2017-06-20T08:40:36Z</time>
      </trkpt>
      <trkpt lat="47.79582" lon="0.37691">
        <ele>167.4</ele>
        <time>2017-06-20T08:40:53Z</time>
      </trkpt>
      <trkpt lat="47.79586" lon="0.37694">
        <ele>168.3</ele>
        <time>2017-06-20T08:41:03Z</time>
      </trkpt>
      <trkpt lat="47.79592" lon="0.37693">
        <ele>168.8</ele>
        <time>2017-06-20T08:41:10Z</time>
      </trkpt>
      <trkpt lat="47.79597" lon="0.37693">
        <ele>168.5</ele>
        <time>2017-06-20T08:41:16Z</time>
      </trkpt>
      <trkpt lat="47.79599" lon="0.37693">
        <ele>168.4</ele>
        <time>2017-06-20T08:41:19Z</time>
      </trkpt>
      <trkpt lat="47.79606" lon="0.37689">
        <ele>168.3</ele>
        <time>2017-06-20T08:41:28Z</time>
      </trkpt>
      <trkpt lat="47.79613" lon="0.37684">
        <ele>168.8</ele>
        <time>2017-06-20T08:41:38Z</time>
      </trkpt>
      <trkpt lat="47.79626" lon="0.3768">
        <ele>169.6</ele>
        <time>2017-06-20T08:41:53Z</time>
      </trkpt>
      <trkpt lat="47.79639" lon="0.37673">
        <ele>170.4</ele>
        <time>2017-06-20T08:42:09Z</time>
      </trkpt>
      <trkpt lat="47.79647" lon="0.37668">
        <ele>171.8</ele>
        <time>2017-06-20T08:42:36Z</time>
      </trkpt>
      <trkpt lat="47.79648" lon="0.37668">
        <ele>171.9</ele>
        <time>2017-06-20T08:42:39Z</time>
      </trkpt>
      <trkpt lat="47.79661" lon="0.37659">
        <ele>173.2</ele>
        <time>2017-06-20T08:43:16Z</time>
      </trkpt>
      <trkpt lat="47.79674" lon="0.37654">
        <ele>173.6</ele>
        <time>2017-06-20T08:43:30Z</time>
      </trkpt>
      <trkpt lat="47.79682" lon="0.37648">
        <ele>174.1</ele>
        <time>2017-06-20T08:43:44Z</time>
      </trkpt>
      <trkpt lat="47.79679" lon="0.37656">
        <ele>174.8</ele>
        <time>2017-06-20T08:44:07Z</time>
      </trkpt>
      <trkpt lat="47.79678" lon="0.37658">
        <ele>173.2</ele>
        <time>2017-06-20T08:44:14Z</time>
      </trkpt>
      <trkpt lat="47.79685" lon="0.37656">
        <ele>171</ele>
        <time>2017-06-20T08:44:23Z</time>
      </trkpt>
      <trkpt lat="47.79689" lon="0.37655">
        <ele>166.9</ele>
        <time>2017-06-20T08:44:28Z</time>
      </trkpt>
      <trkpt lat="47.79692" lon="0.37655">
        <ele>165.4</ele>
        <time>2017-06-20T08:44:32Z</time>
      </trkpt>
      <trkpt lat="47.79698" lon="0.37654">
        <ele>163</ele>
        <time>2017-06-20T08:44:39Z</time>
      </trkpt>
      <trkpt lat="47.79706" lon="0.37653">
        <ele>164.3</ele>
        <time>2017-06-20T08:44:47Z</time>
      </trkpt>
      <trkpt lat="47.7972" lon="0.37649">
        <ele>166.1</ele>
        <time>2017-06-20T08:44:58Z</time>
      </trkpt>
      <trkpt lat="47.79721" lon="0.37647">
        <ele>166.6</ele>
        <time>2017-06-20T08:45:01Z</time>
      </trkpt>
      <trkpt lat="47.79725" lon="0.37645">
        <ele>166.1</ele>
        <time>2017-06-20T08:45:07Z</time>
      </trkpt>
      <trkpt lat="47.79727" lon="0.37643">
        <ele>166.3</ele>
        <time>2017-06-20T08:45:12Z</time>
      </trkpt>
      <trkpt lat="47.79733" lon="0.37639">
        <ele>167.4</ele>
        <time>2017-06-20T08:45:22Z</time>
      </trkpt>
      <trkpt lat="47.79747" lon="0.37639">
        <ele>168.4</ele>
        <time>2017-06-20T08:45:31Z</time>
      </trkpt>
      <trkpt lat="47.79753" lon="0.37634">
        <ele>169.3</ele>
        <time>2017-06-20T08:45:40Z</time>
      </trkpt>
      <trkpt lat="47.79759" lon="0.37627">
        <ele>169.7</ele>
        <time>2017-06-20T08:45:50Z</time>
      </trkpt>
      <trkpt lat="47.79768" lon="0.37613">
        <ele>170</ele>
        <time>2017-06-20T08:45:59Z</time>
      </trkpt>
      <trkpt lat="47.7978" lon="0.37609">
        <ele>170.6</ele>
        <time>2017-06-20T08:46:15Z</time>
      </trkpt>
      <trkpt lat="47.79789" lon="0.37592">
        <ele>171.1</ele>
        <time>2017-06-20T08:46:30Z</time>
      </trkpt>
      <trkpt lat="47.79798" lon="0.37577">
        <ele>171.4</ele>
        <time>2017-06-20T08:46:38Z</time>
      </trkpt>
      <trkpt lat="47.79799" lon="0.37569">
        <ele>171.9</ele>
        <time>2017-06-20T08:46:51Z</time>
      </trkpt>
      <trkpt lat="47.79802" lon="0.37569">
        <ele>172</ele>
        <time>2017-06-20T08:46:55Z</time>
      </trkpt>
      <trkpt lat="47.79797" lon="0.37555">
        <ele>172.5</ele>
        <time>2017-06-20T08:47:08Z</time>
      </trkpt>
      <trkpt lat="47.79796" lon="0.3755">
        <ele>172.3</ele>
        <time>2017-06-20T08:47:13Z</time>
      </trkpt>
      <trkpt lat="47.79802" lon="0.37535">
        <ele>171.5</ele>
        <time>2017-06-20T08:47:30Z</time>
      </trkpt>
      <trkpt lat="47.79799" lon="0.37526">
        <ele>171.3</ele>
        <time>2017-06-20T08:47:35Z</time>
      </trkpt>
      <trkpt lat="47.79803" lon="0.37526">
        <ele>170.9</ele>
        <time>2017-06-20T08:47:45Z</time>
      </trkpt>
      <trkpt lat="47.79808" lon="0.37505">
        <ele>170.4</ele>
        <time>2017-06-20T08:47:56Z</time>
      </trkpt>
      <trkpt lat="47.79806" lon="0.37484">
        <ele>170</ele>
        <time>2017-06-20T08:48:06Z</time>
      </trkpt>
      <trkpt lat="47.79805" lon="0.37462">
        <ele>169.7</ele>
        <time>2017-06-20T08:48:14Z</time>
      </trkpt>
      <trkpt lat="47.79796" lon="0.37446">
        <ele>169.3</ele>
        <time>2017-06-20T08:48:22Z</time>
      </trkpt>
      <trkpt lat="47.79792" lon="0.37426">
        <ele>168.9</ele>
        <time>2017-06-20T08:48:31Z</time>
      </trkpt>
      <trkpt lat="47.79792" lon="0.37421">
        <ele>168.7</ele>
        <time>2017-06-20T08:48:36Z</time>
      </trkpt>
      <trkpt lat="47.79791" lon="0.37407">
        <ele>167.1</ele>
        <time>2017-06-20T08:48:51Z</time>
      </trkpt>
      <trkpt lat="47.79795" lon="0.37402">
        <ele>166.4</ele>
        <time>2017-06-20T08:48:57Z</time>
      </trkpt>
      <trkpt lat="47.79793" lon="0.37383">
        <ele>165</ele>
        <time>2017-06-20T08:49:09Z</time>
      </trkpt>
      <trkpt lat="47.79793" lon="0.3738">
        <ele>164.5</ele>
        <time>2017-06-20T08:49:11Z</time>
      </trkpt>
      <trkpt lat="47.79784" lon="0.37357">
        <ele>160.7</ele>
        <time>2017-06-20T08:49:27Z</time>
      </trkpt>
      <trkpt lat="47.79782" lon="0.3735">
        <ele>159.8</ele>
        <time>2017-06-20T08:49:31Z</time>
      </trkpt>
      <trkpt lat="47.79778" lon="0.37338">
        <ele>157.8</ele>
        <time>2017-06-20T08:49:38Z</time>
      </trkpt>
      <trkpt lat="47.79774" lon="0.37335">
        <ele>156.5</ele>
        <time>2017-06-20T08:49:43Z</time>
      </trkpt>
      <trkpt lat="47.79766" lon="0.37326">
        <ele>156.2</ele>
        <time>2017-06-20T08:49:54Z</time>
      </trkpt>
      <trkpt lat="47.79758" lon="0.3731">
        <ele>155.9</ele>
        <time>2017-06-20T08:50:06Z</time>
      </trkpt>
      <trkpt lat="47.79756" lon="0.37292">
        <ele>155.4</ele>
        <time>2017-06-20T08:50:26Z</time>
      </trkpt>
      <trkpt lat="47.79756" lon="0.37289">
        <ele>155.3</ele>
        <time>2017-06-20T08:50:29Z</time>
      </trkpt>
      <trkpt lat="47.79759" lon="0.3727">
        <ele>154.9</ele>
        <time>2017-06-20T08:50:39Z</time>
      </trkpt>
      <trkpt lat="47.79764" lon="0.3725">
        <ele>154.2</ele>
        <time>2017-06-20T08:50:53Z</time>
      </trkpt>
      <trkpt lat="47.79761" lon="0.37229">
        <ele>153.8</ele>
        <time>2017-06-20T08:51:02Z</time>
      </trkpt>
      <trkpt lat="47.79761" lon="0.3722">
        <ele>153.6</ele>
        <time>2017-06-20T08:51:07Z</time>
      </trkpt>
      <trkpt lat="47.79754" lon="0.37219">
        <ele>153.3</ele>
        <time>2017-06-20T08:51:12Z</time>
      </trkpt>
      <trkpt lat="47.79741" lon="0.37227">
        <ele>153</ele>
        <time>2017-06-20T08:51:20Z</time>
      </trkpt>
      <trkpt lat="47.79728" lon="0.37223">
        <ele>152.4</ele>
        <time>2017-06-20T08:51:32Z</time>
      </trkpt>
      <trkpt lat="47.79714" lon="0.37217">
        <ele>151.8</ele>
        <time>2017-06-20T08:51:47Z</time>
      </trkpt>
      <trkpt lat="47.79709" lon="0.37219">
        <ele>151.3</ele>
        <time>2017-06-20T08:51:55Z</time>
      </trkpt>
      <trkpt lat="47.79703" lon="0.37222">
        <ele>148.3</ele>
        <time>2017-06-20T08:52:06Z</time>
      </trkpt>
      <trkpt lat="47.797" lon="0.37222">
        <ele>148.6</ele>
        <time>2017-06-20T08:52:09Z</time>
      </trkpt>
      <trkpt lat="47.79686" lon="0.37224">
        <ele>149.3</ele>
        <time>2017-06-20T08:52:19Z</time>
      </trkpt>
      <trkpt lat="47.79683" lon="0.37225">
        <ele>149.5</ele>
        <time>2017-06-20T08:52:22Z</time>
      </trkpt>
      <trkpt lat="47.79672" lon="0.37227">
        <ele>148.9</ele>
        <time>2017-06-20T08:52:36Z</time>
      </trkpt>
      <trkpt lat="47.79657" lon="0.37226">
        <ele>148.6</ele>
        <time>2017-06-20T08:52:45Z</time>
      </trkpt>
      <trkpt lat="47.79643" lon="0.37225">
        <ele>147.9</ele>
        <time>2017-06-20T08:53:01Z</time>
      </trkpt>
      <trkpt lat="47.79628" lon="0.37233">
        <ele>147.5</ele>
        <time>2017-06-20T08:53:12Z</time>
      </trkpt>
      <trkpt lat="47.79615" lon="0.37241">
        <ele>147</ele>
        <time>2017-06-20T08:53:23Z</time>
      </trkpt>
      <trkpt lat="47.79601" lon="0.37242">
        <ele>146.4</ele>
        <time>2017-06-20T08:53:40Z</time>
      </trkpt>
      <trkpt lat="47.79586" lon="0.37241">
        <ele>145.8</ele>
        <time>2017-06-20T08:53:54Z</time>
      </trkpt>
      <trkpt lat="47.79585" lon="0.37241">
        <ele>145.7</ele>
        <time>2017-06-20T08:53:55Z</time>
      </trkpt>
      <trkpt lat="47.79572" lon="0.37239">
        <ele>144.5</ele>
        <time>2017-06-20T08:54:02Z</time>
      </trkpt>
      <trkpt lat="47.79566" lon="0.37236">
        <ele>143</ele>
        <time>2017-06-20T08:54:11Z</time>
      </trkpt>
      <trkpt lat="47.79558" lon="0.37233">
        <ele>144.2</ele>
        <time>2017-06-20T08:54:22Z</time>
      </trkpt>
      <trkpt lat="47.79547" lon="0.37228">
        <ele>140.4</ele>
        <time>2017-06-20T08:54:27Z</time>
      </trkpt>
      <trkpt lat="47.79546" lon="0.37227">
        <ele>140.4</ele>
        <time>2017-06-20T08:54:28Z</time>
      </trkpt>
      <trkpt lat="47.79532" lon="0.37234">
        <ele>140</ele>
        <time>2017-06-20T08:54:46Z</time>
      </trkpt>
      <trkpt lat="47.79529" lon="0.37238">
        <ele>139.8</ele>
        <time>2017-06-20T08:54:49Z</time>
      </trkpt>
      <trkpt lat="47.7952" lon="0.37245">
        <ele>137.4</ele>
        <time>2017-06-20T08:54:56Z</time>
      </trkpt>
      <trkpt lat="47.79515" lon="0.37248">
        <ele>136.4</ele>
        <time>2017-06-20T08:54:59Z</time>
      </trkpt>
      <trkpt lat="47.79506" lon="0.37253">
        <ele>135.8</ele>
        <time>2017-06-20T08:55:04Z</time>
      </trkpt>
      <trkpt lat="47.79501" lon="0.37253">
        <ele>135.4</ele>
        <time>2017-06-20T08:55:08Z</time>
      </trkpt>
      <trkpt lat="47.795" lon="0.37252">
        <ele>135.3</ele>
        <time>2017-06-20T08:55:10Z</time>
      </trkpt>
      <trkpt lat="47.79494" lon="0.37248">
        <ele>134.7</ele>
        <time>2017-06-20T08:55:16Z</time>
      </trkpt>
      <trkpt lat="47.7949" lon="0.37245">
        <ele>134.9</ele>
        <time>2017-06-20T08:55:21Z</time>
      </trkpt>
      <trkpt lat="47.79489" lon="0.37245">
        <ele>134.8</ele>
        <time>2017-06-20T08:55:22Z</time>
      </trkpt>
      <trkpt lat="47.7949" lon="0.37245">
        <ele>134.6</ele>
        <time>2017-06-20T08:55:27Z</time>
      </trkpt>
      <trkpt lat="47.7949" lon="0.37245">
        <ele>133.8</ele>
        <time>2017-06-20T08:55:34Z</time>
      </trkpt>
      <trkpt lat="47.79484" lon="0.37246">
        <ele>133.3</ele>
        <time>2017-06-20T08:55:39Z</time>
      </trkpt>
      <trkpt lat="47.79477" lon="0.37246">
        <ele>134.1</ele>
        <time>2017-06-20T08:55:44Z</time>
      </trkpt>
      <trkpt lat="47.79476" lon="0.37245">
        <ele>134.2</ele>
        <time>2017-06-20T08:55:45Z</time>
      </trkpt>
      <trkpt lat="47.79464" lon="0.37241">
        <ele>133.9</ele>
        <time>2017-06-20T08:55:55Z</time>
      </trkpt>
      <trkpt lat="47.79461" lon="0.37225">
        <ele>133.3</ele>
        <time>2017-06-20T08:56:18Z</time>
      </trkpt>
      <trkpt lat="47.79463" lon="0.37226">
        <ele>133.1</ele>
        <time>2017-06-20T08:56:25Z</time>
      </trkpt>
      <trkpt lat="47.7945" lon="0.37218">
        <ele>130.5</ele>
        <time>2017-06-20T08:57:59Z</time>
      </trkpt>
      <trkpt lat="47.79448" lon="0.37218">
        <ele>130.4</ele>
        <time>2017-06-20T08:58:03Z</time>
      </trkpt>
      <trkpt lat="47.79435" lon="0.37223">
        <ele>129.8</ele>
        <time>2017-06-20T08:58:26Z</time>
      </trkpt>
      <trkpt lat="47.79442" lon="0.37241">
        <ele>129.4</ele>
        <time>2017-06-20T08:58:40Z</time>
      </trkpt>
      <trkpt lat="47.79444" lon="0.37235">
        <ele>129.2</ele>
        <time>2017-06-20T08:58:48Z</time>
      </trkpt>
      <trkpt lat="47.79437" lon="0.37233">
        <ele>129.1</ele>
        <time>2017-06-20T08:58:52Z</time>
      </trkpt>
      <trkpt lat="47.79427" lon="0.3723">
        <ele>129</ele>
        <time>2017-06-20T08:58:58Z</time>
      </trkpt>
      <trkpt lat="47.79422" lon="0.37229">
        <ele>128.9</ele>
        <time>2017-06-20T08:59:02Z</time>
      </trkpt>
      <trkpt lat="47.79419" lon="0.37228">
        <ele>129.3</ele>
        <time>2017-06-20T08:59:05Z</time>
      </trkpt>
      <trkpt lat="47.79419" lon="0.37226">
        <ele>129.6</ele>
        <time>2017-06-20T08:59:08Z</time>
      </trkpt>
      <trkpt lat="47.79418" lon="0.37221">
        <ele>129.7</ele>
        <time>2017-06-20T08:59:17Z</time>
      </trkpt>
      <trkpt lat="47.79416" lon="0.37223">
        <ele>129.8</ele>
        <time>2017-06-20T08:59:28Z</time>
      </trkpt>
      <trkpt lat="47.79427" lon="0.37233">
        <ele>130.8</ele>
        <time>2017-06-20T09:00:59Z</time>
      </trkpt>
      <trkpt lat="47.79441" lon="0.37229">
        <ele>131.4</ele>
        <time>2017-06-20T09:01:51Z</time>
      </trkpt>
      <trkpt lat="47.79446" lon="0.37223">
        <ele>132.1</ele>
        <time>2017-06-20T09:02:58Z</time>
      </trkpt>
      <trkpt lat="47.79452" lon="0.37206">
        <ele>132.6</ele>
        <time>2017-06-20T09:03:49Z</time>
      </trkpt>
      <trkpt lat="47.79453" lon="0.37204">
        <ele>132.1</ele>
        <time>2017-06-20T09:03:55Z</time>
      </trkpt>
      <trkpt lat="47.79456" lon="0.37199">
        <ele>131.4</ele>
        <time>2017-06-20T09:04:02Z</time>
      </trkpt>
      <trkpt lat="47.79444" lon="0.37205">
        <ele>129.6</ele>
        <time>2017-06-20T09:04:22Z</time>
      </trkpt>
      <trkpt lat="47.79443" lon="0.37206">
        <ele>129.6</ele>
        <time>2017-06-20T09:04:23Z</time>
      </trkpt>
      <trkpt lat="47.79431" lon="0.37218">
        <ele>129.8</ele>
        <time>2017-06-20T09:04:37Z</time>
      </trkpt>
      <trkpt lat="47.7942" lon="0.37224">
        <ele>129.9</ele>
        <time>2017-06-20T09:04:45Z</time>
      </trkpt>
      <trkpt lat="47.79417" lon="0.37226">
        <ele>129.9</ele>
        <time>2017-06-20T09:04:47Z</time>
      </trkpt>
      <trkpt lat="47.79431" lon="0.37225">
        <ele>130.3</ele>
        <time>2017-06-20T09:05:16Z</time>
      </trkpt>
      <trkpt lat="47.79445" lon="0.37226">
        <ele>130.5</ele>
        <time>2017-06-20T09:05:27Z</time>
      </trkpt>
      <trkpt lat="47.79462" lon="0.37231">
        <ele>130.8</ele>
        <time>2017-06-20T09:05:57Z</time>
      </trkpt>
      <trkpt lat="47.79464" lon="0.37231">
        <ele>131</ele>
        <time>2017-06-20T09:06:09Z</time>
      </trkpt>
      <trkpt lat="47.79467" lon="0.37237">
        <ele>131.1</ele>
        <time>2017-06-20T09:06:19Z</time>
      </trkpt>
      <trkpt lat="47.79461" lon="0.37235">
        <ele>131.2</ele>
        <time>2017-06-20T09:06:26Z</time>
      </trkpt>
      <trkpt lat="47.79462" lon="0.37256">
        <ele>132.3</ele>
        <time>2017-06-20T09:07:53Z</time>
      </trkpt>
      <trkpt lat="47.79477" lon="0.37262">
        <ele>132.5</ele>
        <time>2017-06-20T09:08:05Z</time>
      </trkpt>
      <trkpt lat="47.79491" lon="0.37258">
        <ele>132.7</ele>
        <time>2017-06-20T09:08:18Z</time>
      </trkpt>
      <trkpt lat="47.79504" lon="0.37259">
        <ele>132.8</ele>
        <time>2017-06-20T09:08:32Z</time>
      </trkpt>
      <trkpt lat="47.7951" lon="0.37258">
        <ele>132.9</ele>
        <time>2017-06-20T09:08:37Z</time>
      </trkpt>
      <trkpt lat="47.79519" lon="0.37257">
        <ele>133.4</ele>
        <time>2017-06-20T09:08:45Z</time>
      </trkpt>
      <trkpt lat="47.79536" lon="0.37256">
        <ele>134.2</ele>
        <time>2017-06-20T09:08:59Z</time>
      </trkpt>
      <trkpt lat="47.79548" lon="0.37245">
        <ele>135.2</ele>
        <time>2017-06-20T09:09:16Z</time>
      </trkpt>
      <trkpt lat="47.79558" lon="0.37246">
        <ele>136.4</ele>
        <time>2017-06-20T09:09:38Z</time>
      </trkpt>
      <trkpt lat="47.79561" lon="0.37246">
        <ele>136.7</ele>
        <time>2017-06-20T09:09:44Z</time>
      </trkpt>
      <trkpt lat="47.79575" lon="0.37246">
        <ele>137.7</ele>
        <time>2017-06-20T09:10:07Z</time>
      </trkpt>
      <trkpt lat="47.79589" lon="0.37254">
        <ele>138.6</ele>
        <time>2017-06-20T09:10:26Z</time>
      </trkpt>
      <trkpt lat="47.79603" lon="0.37256">
        <ele>139.3</ele>
        <time>2017-06-20T09:10:43Z</time>
      </trkpt>
      <trkpt lat="47.79615" lon="0.37247">
        <ele>139.9</ele>
        <time>2017-06-20T09:10:55Z</time>
      </trkpt>
      <trkpt lat="47.79629" lon="0.37243">
        <ele>140.6</ele>
        <time>2017-06-20T09:11:04Z</time>
      </trkpt>
      <trkpt lat="47.79642" lon="0.37233">
        <ele>141.4</ele>
        <time>2017-06-20T09:11:15Z</time>
      </trkpt>
      <trkpt lat="47.79656" lon="0.3723">
        <ele>142.7</ele>
        <time>2017-06-20T09:11:31Z</time>
      </trkpt>
      <trkpt lat="47.79669" lon="0.3723">
        <ele>143.4</ele>
        <time>2017-06-20T09:11:39Z</time>
      </trkpt>
      <trkpt lat="47.79683" lon="0.37233">
        <ele>144.5</ele>
        <time>2017-06-20T09:11:53Z</time>
      </trkpt>
      <trkpt lat="47.79697" lon="0.37228">
        <ele>145.3</ele>
        <time>2017-06-20T09:12:04Z</time>
      </trkpt>
      <trkpt lat="47.79701" lon="0.37228">
        <ele>145.6</ele>
        <time>2017-06-20T09:12:07Z</time>
      </trkpt>
      <trkpt lat="47.79711" lon="0.37227">
        <ele>146.5</ele>
        <time>2017-06-20T09:12:15Z</time>
      </trkpt>
      <trkpt lat="47.79723" lon="0.37237">
        <ele>147.5</ele>
        <time>2017-06-20T09:12:24Z</time>
      </trkpt>
      <trkpt lat="47.79734" lon="0.37231">
        <ele>149.4</ele>
        <time>2017-06-20T09:12:42Z</time>
      </trkpt>
      <trkpt lat="47.79736" lon="0.37229">
        <ele>149.3</ele>
        <time>2017-06-20T09:12:45Z</time>
      </trkpt>
      <trkpt lat="47.79738" lon="0.37229">
        <ele>149.3</ele>
        <time>2017-06-20T09:12:48Z</time>
      </trkpt>
      <trkpt lat="47.79742" lon="0.37228">
        <ele>150</ele>
        <time>2017-06-20T09:12:53Z</time>
      </trkpt>
      <trkpt lat="47.79749" lon="0.37226">
        <ele>151.1</ele>
        <time>2017-06-20T09:13:02Z</time>
      </trkpt>
      <trkpt lat="47.79764" lon="0.37226">
        <ele>152.3</ele>
        <time>2017-06-20T09:13:11Z</time>
      </trkpt>
      <trkpt lat="47.7977" lon="0.37225">
        <ele>152.9</ele>
        <time>2017-06-20T09:13:16Z</time>
      </trkpt>
      <trkpt lat="47.7978" lon="0.37223">
        <ele>151.8</ele>
        <time>2017-06-20T09:13:23Z</time>
      </trkpt>
      <trkpt lat="47.79791" lon="0.37224">
        <ele>151.2</ele>
        <time>2017-06-20T09:13:27Z</time>
      </trkpt>
      <trkpt lat="47.79794" lon="0.37224">
        <ele>151.3</ele>
        <time>2017-06-20T09:13:28Z</time>
      </trkpt>
      <trkpt lat="47.79807" lon="0.37225">
        <ele>152.4</ele>
        <time>2017-06-20T09:13:42Z</time>
      </trkpt>
      <trkpt lat="47.79807" lon="0.3723">
        <ele>154.3</ele>
        <time>2017-06-20T09:14:05Z</time>
      </trkpt>
      <trkpt lat="47.79801" lon="0.37222">
        <ele>155.1</ele>
        <time>2017-06-20T09:14:15Z</time>
      </trkpt>
      <trkpt lat="47.79801" lon="0.37222">
        <ele>155.1</ele>
        <time>2017-06-20T09:14:18Z</time>
      </trkpt>
      <trkpt lat="47.798" lon="0.37222">
        <ele>149</ele>
        <time>2017-06-20T09:14:34Z</time>
      </trkpt>
      <trkpt lat="47.798" lon="0.37222">
        <ele>149.6</ele>
        <time>2017-06-20T09:14:40Z</time>
      </trkpt>
      <trkpt lat="47.79805" lon="0.37226">
        <ele>150.3</ele>
        <time>2017-06-20T09:14:48Z</time>
      </trkpt>
      <trkpt lat="47.79796" lon="0.37222">
        <ele>151.1</ele>
        <time>2017-06-20T09:14:56Z</time>
      </trkpt>
      <trkpt lat="47.79799" lon="0.37219">
        <ele>152.7</ele>
        <time>2017-06-20T09:15:14Z</time>
      </trkpt>
      <trkpt lat="47.79804" lon="0.37217">
        <ele>146.5</ele>
        <time>2017-06-20T09:15:35Z</time>
      </trkpt>
      <trkpt lat="47.79804" lon="0.37217">
        <ele>145.9</ele>
        <time>2017-06-20T09:15:36Z</time>
      </trkpt>
      <trkpt lat="47.79803" lon="0.3722">
        <ele>142.9</ele>
        <time>2017-06-20T09:15:41Z</time>
      </trkpt>
      <trkpt lat="47.79799" lon="0.3723">
        <ele>138.9</ele>
        <time>2017-06-20T09:15:59Z</time>
      </trkpt>
      <trkpt lat="47.79798" lon="0.37233">
        <ele>141.9</ele>
        <time>2017-06-20T09:16:04Z</time>
      </trkpt>
      <trkpt lat="47.79797" lon="0.37233">
        <ele>142.2</ele>
        <time>2017-06-20T09:16:05Z</time>
      </trkpt>
      <trkpt lat="47.79793" lon="0.37234">
        <ele>141.5</ele>
        <time>2017-06-20T09:16:11Z</time>
      </trkpt>
      <trkpt lat="47.79785" lon="0.37235">
        <ele>146.1</ele>
        <time>2017-06-20T09:16:22Z</time>
      </trkpt>
      <trkpt lat="47.79777" lon="0.37235">
        <ele>149.8</ele>
        <time>2017-06-20T09:16:33Z</time>
      </trkpt>
      <trkpt lat="47.7977" lon="0.37234">
        <ele>149.2</ele>
        <time>2017-06-20T09:16:42Z</time>
      </trkpt>
      <trkpt lat="47.79756" lon="0.37227">
        <ele>148.5</ele>
        <time>2017-06-20T09:16:52Z</time>
      </trkpt>
      <trkpt lat="47.79751" lon="0.37227">
        <ele>148.1</ele>
        <time>2017-06-20T09:16:59Z</time>
      </trkpt>
      <trkpt lat="47.79746" lon="0.37226">
        <ele>148.1</ele>
        <time>2017-06-20T09:17:05Z</time>
      </trkpt>
      <trkpt lat="47.79742" lon="0.37226">
        <ele>147.8</ele>
        <time>2017-06-20T09:17:11Z</time>
      </trkpt>
      <trkpt lat="47.79727" lon="0.37227">
        <ele>146.9</ele>
        <time>2017-06-20T09:17:29Z</time>
      </trkpt>
      <trkpt lat="47.79714" lon="0.37221">
        <ele>146</ele>
        <time>2017-06-20T09:17:48Z</time>
      </trkpt>
      <trkpt lat="47.797" lon="0.37224">
        <ele>145.2</ele>
        <time>2017-06-20T09:18:05Z</time>
      </trkpt>
      <trkpt lat="47.79698" lon="0.37226">
        <ele>145</ele>
        <time>2017-06-20T09:18:07Z</time>
      </trkpt>
      <trkpt lat="47.79687" lon="0.37233">
        <ele>142.9</ele>
        <time>2017-06-20T09:18:17Z</time>
      </trkpt>
      <trkpt lat="47.79673" lon="0.37233">
        <ele>141.2</ele>
        <time>2017-06-20T09:18:25Z</time>
      </trkpt>
      <trkpt lat="47.79664" lon="0.3723">
        <ele>140.5</ele>
        <time>2017-06-20T09:18:29Z</time>
      </trkpt>
      <trkpt lat="47.7966" lon="0.37229">
        <ele>140.4</ele>
        <time>2017-06-20T09:18:31Z</time>
      </trkpt>
      <trkpt lat="47.79646" lon="0.3723">
        <ele>140.2</ele>
        <time>2017-06-20T09:18:41Z</time>
      </trkpt>
      <trkpt lat="47.79634" lon="0.37243">
        <ele>139.9</ele>
        <time>2017-06-20T09:18:57Z</time>
      </trkpt>
      <trkpt lat="47.7962" lon="0.37249">
        <ele>139.8</ele>
        <time>2017-06-20T09:19:07Z</time>
      </trkpt>
      <trkpt lat="47.79607" lon="0.37245">
        <ele>139.6</ele>
        <time>2017-06-20T09:19:17Z</time>
      </trkpt>
      <trkpt lat="47.79593" lon="0.37251">
        <ele>139.2</ele>
        <time>2017-06-20T09:19:39Z</time>
      </trkpt>
      <trkpt lat="47.79579" lon="0.37246">
        <ele>139</ele>
        <time>2017-06-20T09:19:48Z</time>
      </trkpt>
      <trkpt lat="47.79566" lon="0.3724">
        <ele>138.9</ele>
        <time>2017-06-20T09:19:55Z</time>
      </trkpt>
      <trkpt lat="47.79552" lon="0.37239">
        <ele>138.6</ele>
        <time>2017-06-20T09:20:11Z</time>
      </trkpt>
      <trkpt lat="47.79537" lon="0.37238">
        <ele>137.1</ele>
        <time>2017-06-20T09:21:29Z</time>
      </trkpt>
      <trkpt lat="47.79523" lon="0.3724">
        <ele>136.8</ele>
        <time>2017-06-20T09:21:45Z</time>
      </trkpt>
      <trkpt lat="47.79509" lon="0.37245">
        <ele>136.5</ele>
        <time>2017-06-20T09:21:58Z</time>
      </trkpt>
      <trkpt lat="47.79496" lon="0.3725">
        <ele>136.2</ele>
        <time>2017-06-20T09:22:16Z</time>
      </trkpt>
      <trkpt lat="47.79482" lon="0.37253">
        <ele>135.9</ele>
        <time>2017-06-20T09:22:30Z</time>
      </trkpt>
      <trkpt lat="47.79467" lon="0.37249">
        <ele>135.7</ele>
        <time>2017-06-20T09:22:41Z</time>
      </trkpt>
      <trkpt lat="47.79455" lon="0.37238">
        <ele>135.5</ele>
        <time>2017-06-20T09:22:51Z</time>
      </trkpt>
      <trkpt lat="47.79455" lon="0.37236">
        <ele>135.3</ele>
        <time>2017-06-20T09:22:55Z</time>
      </trkpt>
      <trkpt lat="47.79454" lon="0.3723">
        <ele>131.6</ele>
        <time>2017-06-20T09:23:06Z</time>
      </trkpt>
      <trkpt lat="47.79448" lon="0.37228">
        <ele>129.4</ele>
        <time>2017-06-20T09:23:24Z</time>
      </trkpt>
      <trkpt lat="47.79443" lon="0.37226">
        <ele>128.8</ele>
        <time>2017-06-20T09:23:41Z</time>
      </trkpt>
      <trkpt lat="47.79441" lon="0.37225">
        <ele>125.7</ele>
        <time>2017-06-20T09:23:47Z</time>
      </trkpt>
      <trkpt lat="47.7944" lon="0.37225">
        <ele>126.1</ele>
        <time>2017-06-20T09:23:50Z</time>
      </trkpt>
      <trkpt lat="47.79429" lon="0.37223">
        <ele>127.2</ele>
        <time>2017-06-20T09:24:03Z</time>
      </trkpt>
      <trkpt lat="47.79426" lon="0.37223">
        <ele>125.3</ele>
        <time>2017-06-20T09:24:06Z</time>
      </trkpt>
      <trkpt lat="47.79426" lon="0.37223">
        <ele>124.2</ele>
        <time>2017-06-20T09:24:08Z</time>
      </trkpt>
      <trkpt lat="47.79425" lon="0.37224">
        <ele>124.4</ele>
        <time>2017-06-20T09:24:13Z</time>
      </trkpt>
      <trkpt lat="47.79421" lon="0.37227">
        <ele>127.7</ele>
        <time>2017-06-20T09:24:46Z</time>
      </trkpt>
      <trkpt lat="47.79418" lon="0.37229">
        <ele>126.6</ele>
        <time>2017-06-20T09:25:09Z</time>
      </trkpt>
      <trkpt lat="47.79423" lon="0.3724">
        <ele>125.2</ele>
        <time>2017-06-20T09:25:39Z</time>
      </trkpt>
      <trkpt lat="47.79418" lon="0.37241">
        <ele>124.6</ele>
        <time>2017-06-20T09:25:53Z</time>
      </trkpt>
      <trkpt lat="47.79417" lon="0.37241">
        <ele>125.2</ele>
        <time>2017-06-20T09:25:59Z</time>
      </trkpt>
      <trkpt lat="47.79419" lon="0.37255">
        <ele>128.1</ele>
        <time>2017-06-20T09:26:31Z</time>
      </trkpt>
      <trkpt lat="47.79419" lon="0.37256">
        <ele>128.4</ele>
        <time>2017-06-20T09:26:35Z</time>
      </trkpt>
      <trkpt lat="47.79406" lon="0.37263">
        <ele>129.3</ele>
        <time>2017-06-20T09:26:51Z</time>
      </trkpt>
      <trkpt lat="47.79393" lon="0.37263">
        <ele>130</ele>
        <time>2017-06-20T09:27:02Z</time>
      </trkpt>
      <trkpt lat="47.79384" lon="0.37263">
        <ele>130.8</ele>
        <time>2017-06-20T09:27:15Z</time>
      </trkpt>
      <trkpt lat="47.79378" lon="0.37261">
        <ele>131.2</ele>
        <time>2017-06-20T09:27:22Z</time>
      </trkpt>
      <trkpt lat="47.7937" lon="0.37259">
        <ele>131.4</ele>
        <time>2017-06-20T09:27:31Z</time>
      </trkpt>
      <trkpt lat="47.79358" lon="0.37256">
        <ele>131.6</ele>
        <time>2017-06-20T09:27:40Z</time>
      </trkpt>
      <trkpt lat="47.79351" lon="0.37238">
        <ele>132</ele>
        <time>2017-06-20T09:27:56Z</time>
      </trkpt>
      <trkpt lat="47.79338" lon="0.3723">
        <ele>132.3</ele>
        <time>2017-06-20T09:28:07Z</time>
      </trkpt>
      <trkpt lat="47.79324" lon="0.3722">
        <ele>132.5</ele>
        <time>2017-06-20T09:28:17Z</time>
      </trkpt>
      <trkpt lat="47.79311" lon="0.37212">
        <ele>132.7</ele>
        <time>2017-06-20T09:28:26Z</time>
      </trkpt>
      <trkpt lat="47.79298" lon="0.37206">
        <ele>133</ele>
        <time>2017-06-20T09:28:38Z</time>
      </trkpt>
      <trkpt lat="47.79283" lon="0.37204">
        <ele>133.3</ele>
        <time>2017-06-20T09:28:53Z</time>
      </trkpt>
      <trkpt lat="47.7927" lon="0.37211">
        <ele>133.7</ele>
        <time>2017-06-20T09:29:06Z</time>
      </trkpt>
      <trkpt lat="47.79257" lon="0.37218">
        <ele>134</ele>
        <time>2017-06-20T09:29:19Z</time>
      </trkpt>
      <trkpt lat="47.79243" lon="0.37223">
        <ele>134.3</ele>
        <time>2017-06-20T09:29:32Z</time>
      </trkpt>
      <trkpt lat="47.79229" lon="0.37226">
        <ele>134.6</ele>
        <time>2017-06-20T09:29:47Z</time>
      </trkpt>
      <trkpt lat="47.79215" lon="0.37226">
        <ele>134.9</ele>
        <time>2017-06-20T09:30:00Z</time>
      </trkpt>
      <trkpt lat="47.79208" lon="0.37228">
        <ele>135.1</ele>
        <time>2017-06-20T09:30:09Z</time>
      </trkpt>
      <trkpt lat="47.79218" lon="0.37242">
        <ele>135.4</ele>
        <time>2017-06-20T09:30:21Z</time>
      </trkpt>
      <trkpt lat="47.79225" lon="0.37262">
        <ele>135.8</ele>
        <time>2017-06-20T09:30:36Z</time>
      </trkpt>
      <trkpt lat="47.79228" lon="0.37283">
        <ele>136.1</ele>
        <time>2017-06-20T09:30:51Z</time>
      </trkpt>
      <trkpt lat="47.79229" lon="0.37291">
        <ele>136.3</ele>
        <time>2017-06-20T09:30:59Z</time>
      </trkpt>
      <trkpt lat="47.79232" lon="0.37311">
        <ele>136.7</ele>
        <time>2017-06-20T09:31:16Z</time>
      </trkpt>
      <trkpt lat="47.79235" lon="0.37331">
        <ele>137</ele>
        <time>2017-06-20T09:31:27Z</time>
      </trkpt>
      <trkpt lat="47.79234" lon="0.37339">
        <ele>137.3</ele>
        <time>2017-06-20T09:31:37Z</time>
      </trkpt>
      <trkpt lat="47.79234" lon="0.37351">
        <ele>138.4</ele>
        <time>2017-06-20T09:31:52Z</time>
      </trkpt>
      <trkpt lat="47.79236" lon="0.37372">
        <ele>139.6</ele>
        <time>2017-06-20T09:32:07Z</time>
      </trkpt>
      <trkpt lat="47.79231" lon="0.37391">
        <ele>141.2</ele>
        <time>2017-06-20T09:32:28Z</time>
      </trkpt>
      <trkpt lat="47.79232" lon="0.37401">
        <ele>141.5</ele>
        <time>2017-06-20T09:32:33Z</time>
      </trkpt>
      <trkpt lat="47.79232" lon="0.37411">
        <ele>141.7</ele>
        <time>2017-06-20T09:32:38Z</time>
      </trkpt>
      <trkpt lat="47.79232" lon="0.37433">
        <ele>142.3</ele>
        <time>2017-06-20T09:32:52Z</time>
      </trkpt>
      <trkpt lat="47.79234" lon="0.37453">
        <ele>142.9</ele>
        <time>2017-06-20T09:33:05Z</time>
      </trkpt>
      <trkpt lat="47.79234" lon="0.37474">
        <ele>143.5</ele>
        <time>2017-06-20T09:33:18Z</time>
      </trkpt>
      <trkpt lat="47.79239" lon="0.37493">
        <ele>144.1</ele>
        <time>2017-06-20T09:33:31Z</time>
      </trkpt>
      <trkpt lat="47.79247" lon="0.37512">
        <ele>144.5</ele>
        <time>2017-06-20T09:33:42Z</time>
      </trkpt>
      <trkpt lat="47.79248" lon="0.37517">
        <ele>144.7</ele>
        <time>2017-06-20T09:33:44Z</time>
      </trkpt>
      <trkpt lat="47.79252" lon="0.37532">
        <ele>145.3</ele>
        <time>2017-06-20T09:33:50Z</time>
      </trkpt>
      <trkpt lat="47.79261" lon="0.37549">
        <ele>146.6</ele>
        <time>2017-06-20T09:34:01Z</time>
      </trkpt>
      <trkpt lat="47.79268" lon="0.37568">
        <ele>147.6</ele>
        <time>2017-06-20T09:34:10Z</time>
      </trkpt>
      <trkpt lat="47.79269" lon="0.37572">
        <ele>147.9</ele>
        <time>2017-06-20T09:34:12Z</time>
      </trkpt>
      <trkpt lat="47.7927" lon="0.37588">
        <ele>148.5</ele>
        <time>2017-06-20T09:34:19Z</time>
      </trkpt>
      <trkpt lat="47.79274" lon="0.37607">
        <ele>149.1</ele>
        <time>2017-06-20T09:34:26Z</time>
      </trkpt>
      <trkpt lat="47.79277" lon="0.37627">
        <ele>150</ele>
        <time>2017-06-20T09:34:35Z</time>
      </trkpt>
      <trkpt lat="47.79274" lon="0.37635">
        <ele>150.9</ele>
        <time>2017-06-20T09:34:45Z</time>
      </trkpt>
      <trkpt lat="47.79279" lon="0.37634">
        <ele>151.7</ele>
        <time>2017-06-20T09:34:53Z</time>
      </trkpt>
      <trkpt lat="47.79285" lon="0.37632">
        <ele>155.4</ele>
        <time>2017-06-20T09:35:05Z</time>
      </trkpt>
      <trkpt lat="47.79284" lon="0.37635">
        <ele>156.5</ele>
        <time>2017-06-20T09:35:09Z</time>
      </trkpt>
      <trkpt lat="47.79283" lon="0.37643">
        <ele>156.7</ele>
        <time>2017-06-20T09:35:20Z</time>
      </trkpt>
      <trkpt lat="47.79281" lon="0.37652">
        <ele>156.5</ele>
        <time>2017-06-20T09:35:32Z</time>
      </trkpt>
      <trkpt lat="47.79279" lon="0.37673">
        <ele>156.2</ele>
        <time>2017-06-20T09:35:43Z</time>
      </trkpt>
      <trkpt lat="47.79279" lon="0.37694">
        <ele>156.1</ele>
        <time>2017-06-20T09:35:52Z</time>
      </trkpt>
      <trkpt lat="47.79279" lon="0.37715">
        <ele>155.9</ele>
        <time>2017-06-20T09:36:00Z</time>
      </trkpt>
      <trkpt lat="47.79277" lon="0.37731">
        <ele>155.8</ele>
        <time>2017-06-20T09:36:06Z</time>
      </trkpt>
      <trkpt lat="47.79288" lon="0.37745">
        <ele>155.6</ele>
        <time>2017-06-20T09:36:19Z</time>
      </trkpt>
      <trkpt lat="47.79289" lon="0.37766">
        <ele>155.3</ele>
        <time>2017-06-20T09:36:31Z</time>
      </trkpt>
      <trkpt lat="47.79285" lon="0.37785">
        <ele>155.2</ele>
        <time>2017-06-20T09:36:39Z</time>
      </trkpt>
      <trkpt lat="47.79287" lon="0.37805">
        <ele>155</ele>
        <time>2017-06-20T09:36:50Z</time>
      </trkpt>
      <trkpt lat="47.79281" lon="0.37826">
        <ele>154.7</ele>
        <time>2017-06-20T09:37:05Z</time>
      </trkpt>
      <trkpt lat="47.79272" lon="0.37841">
        <ele>154.6</ele>
        <time>2017-06-20T09:37:12Z</time>
      </trkpt>
      <trkpt lat="47.79269" lon="0.37861">
        <ele>154.4</ele>
        <time>2017-06-20T09:37:22Z</time>
      </trkpt>
      <trkpt lat="47.79264" lon="0.37881">
        <ele>154.1</ele>
        <time>2017-06-20T09:37:38Z</time>
      </trkpt>
      <trkpt lat="47.79261" lon="0.37901">
        <ele>153.9</ele>
        <time>2017-06-20T09:37:48Z</time>
      </trkpt>
      <trkpt lat="47.79256" lon="0.3792">
        <ele>153.7</ele>
        <time>2017-06-20T09:37:59Z</time>
      </trkpt>
      <trkpt lat="47.7925" lon="0.37939">
        <ele>153.5</ele>
        <time>2017-06-20T09:38:09Z</time>
      </trkpt>
      <trkpt lat="47.79249" lon="0.37945">
        <ele>153.4</ele>
        <time>2017-06-20T09:38:15Z</time>
      </trkpt>
      <trkpt lat="47.79245" lon="0.37959">
        <ele>152.8</ele>
        <time>2017-06-20T09:38:29Z</time>
      </trkpt>
      <trkpt lat="47.79242" lon="0.37979">
        <ele>150.5</ele>
        <time>2017-06-20T09:39:28Z</time>
      </trkpt>
      <trkpt lat="47.79242" lon="0.37999">
        <ele>150.1</ele>
        <time>2017-06-20T09:39:38Z</time>
      </trkpt>
      <trkpt lat="47.79242" lon="0.38001">
        <ele>150</ele>
        <time>2017-06-20T09:39:39Z</time>
      </trkpt>
      <trkpt lat="47.79243" lon="0.38022">
        <ele>149.2</ele>
        <time>2017-06-20T09:39:54Z</time>
      </trkpt>
      <trkpt lat="47.79237" lon="0.3804">
        <ele>148.4</ele>
        <time>2017-06-20T09:40:08Z</time>
      </trkpt>
      <trkpt lat="47.79232" lon="0.38059">
        <ele>147.7</ele>
        <time>2017-06-20T09:40:20Z</time>
      </trkpt>
      <trkpt lat="47.7922" lon="0.38071">
        <ele>147.1</ele>
        <time>2017-06-20T09:40:31Z</time>
      </trkpt>
      <trkpt lat="47.79219" lon="0.38082">
        <ele>146.6</ele>
        <time>2017-06-20T09:40:40Z</time>
      </trkpt>
      <trkpt lat="47.79217" lon="0.38093">
        <ele>145.9</ele>
        <time>2017-06-20T09:40:49Z</time>
      </trkpt>
      <trkpt lat="47.79217" lon="0.38113">
        <ele>144.9</ele>
        <time>2017-06-20T09:41:03Z</time>
      </trkpt>
      <trkpt lat="47.79212" lon="0.38133">
        <ele>143.9</ele>
        <time>2017-06-20T09:41:17Z</time>
      </trkpt>
      <trkpt lat="47.79209" lon="0.38153">
        <ele>143.2</ele>
        <time>2017-06-20T09:41:26Z</time>
      </trkpt>
      <trkpt lat="47.79209" lon="0.38175">
        <ele>142.5</ele>
        <time>2017-06-20T09:41:37Z</time>
      </trkpt>
      <trkpt lat="47.79213" lon="0.38194">
        <ele>141.9</ele>
        <time>2017-06-20T09:41:47Z</time>
      </trkpt>
      <trkpt lat="47.79222" lon="0.38208">
        <ele>139.2</ele>
        <time>2017-06-20T09:42:32Z</time>
      </trkpt>
      <trkpt lat="47.79223" lon="0.38209">
        <ele>139.3</ele>
        <time>2017-06-20T09:42:36Z</time>
      </trkpt>
      <trkpt lat="47.79227" lon="0.3823">
        <ele>140</ele>
        <time>2017-06-20T09:42:59Z</time>
      </trkpt>
      <trkpt lat="47.79228" lon="0.3825">
        <ele>140.5</ele>
        <time>2017-06-20T09:43:20Z</time>
      </trkpt>
      <trkpt lat="47.79227" lon="0.38257">
        <ele>141.9</ele>
        <time>2017-06-20T09:44:07Z</time>
      </trkpt>
      <trkpt lat="47.79213" lon="0.38264">
        <ele>142.2</ele>
        <time>2017-06-20T09:44:19Z</time>
      </trkpt>
      <trkpt lat="47.79199" lon="0.38265">
        <ele>142.6</ele>
        <time>2017-06-20T09:44:35Z</time>
      </trkpt>
      <trkpt lat="47.79188" lon="0.38265">
        <ele>143</ele>
        <time>2017-06-20T09:44:48Z</time>
      </trkpt>
      <trkpt lat="47.79184" lon="0.38284">
        <ele>143.7</ele>
        <time>2017-06-20T09:45:14Z</time>
      </trkpt>
      <trkpt lat="47.79184" lon="0.38286">
        <ele>143.8</ele>
        <time>2017-06-20T09:45:16Z</time>
      </trkpt>
      <trkpt lat="47.7919" lon="0.38304">
        <ele>146.7</ele>
        <time>2017-06-20T09:45:31Z</time>
      </trkpt>
      <trkpt lat="47.7919" lon="0.38306">
        <ele>147.1</ele>
        <time>2017-06-20T09:45:33Z</time>
      </trkpt>
      <trkpt lat="47.7919" lon="0.38326">
        <ele>147.9</ele>
        <time>2017-06-20T09:45:50Z</time>
      </trkpt>
      <trkpt lat="47.79189" lon="0.38338">
        <ele>148.2</ele>
        <time>2017-06-20T09:45:55Z</time>
      </trkpt>
      <trkpt lat="47.79189" lon="0.38347">
        <ele>148.5</ele>
        <time>2017-06-20T09:45:59Z</time>
      </trkpt>
      <trkpt lat="47.79193" lon="0.38363">
        <ele>149.6</ele>
        <time>2017-06-20T09:46:12Z</time>
      </trkpt>
      <trkpt lat="47.79188" lon="0.38363">
        <ele>150</ele>
        <time>2017-06-20T09:46:17Z</time>
      </trkpt>
      <trkpt lat="47.79179" lon="0.38363">
        <ele>150.5</ele>
        <time>2017-06-20T09:46:27Z</time>
      </trkpt>
      <trkpt lat="47.79165" lon="0.38367">
        <ele>151.4</ele>
        <time>2017-06-20T09:46:45Z</time>
      </trkpt>
      <trkpt lat="47.79151" lon="0.38373">
        <ele>152.3</ele>
        <time>2017-06-20T09:47:02Z</time>
      </trkpt>
      <trkpt lat="47.79137" lon="0.38372">
        <ele>152.9</ele>
        <time>2017-06-20T09:47:14Z</time>
      </trkpt>
      <trkpt lat="47.79132" lon="0.38373">
        <ele>153.2</ele>
        <time>2017-06-20T09:47:19Z</time>
      </trkpt>
      <trkpt lat="47.79122" lon="0.38375">
        <ele>153.3</ele>
        <time>2017-06-20T09:47:30Z</time>
      </trkpt>
      <trkpt lat="47.7911" lon="0.38382">
        <ele>153.5</ele>
        <time>2017-06-20T09:47:44Z</time>
      </trkpt>
      <trkpt lat="47.79095" lon="0.38387">
        <ele>153.7</ele>
        <time>2017-06-20T09:48:05Z</time>
      </trkpt>
      <trkpt lat="47.7908" lon="0.38389">
        <ele>153.9</ele>
        <time>2017-06-20T09:48:22Z</time>
      </trkpt>
      <trkpt lat="47.79066" lon="0.38392">
        <ele>154</ele>
        <time>2017-06-20T09:48:36Z</time>
      </trkpt>
      <trkpt lat="47.79063" lon="0.38397">
        <ele>154.1</ele>
        <time>2017-06-20T09:48:41Z</time>
      </trkpt>
      <trkpt lat="47.79066" lon="0.38395">
        <ele>154.2</ele>
        <time>2017-06-20T09:48:48Z</time>
      </trkpt>
      <trkpt lat="47.79055" lon="0.38383">
        <ele>154.8</ele>
        <time>2017-06-20T09:49:49Z</time>
      </trkpt>
      <trkpt lat="47.79057" lon="0.38383">
        <ele>154.9</ele>
        <time>2017-06-20T09:49:57Z</time>
      </trkpt>
      <trkpt lat="47.79054" lon="0.38383">
        <ele>155.1</ele>
        <time>2017-06-20T09:50:15Z</time>
      </trkpt>
      <trkpt lat="47.79047" lon="0.384">
        <ele>155.7</ele>
        <time>2017-06-20T09:51:06Z</time>
      </trkpt>
      <trkpt lat="47.79033" lon="0.384">
        <ele>155.8</ele>
        <time>2017-06-20T09:51:18Z</time>
      </trkpt>
      <trkpt lat="47.79019" lon="0.38402">
        <ele>155.9</ele>
        <time>2017-06-20T09:51:28Z</time>
      </trkpt>
      <trkpt lat="47.79005" lon="0.38404">
        <ele>156</ele>
        <time>2017-06-20T09:51:38Z</time>
      </trkpt>
      <trkpt lat="47.78991" lon="0.38407">
        <ele>156.1</ele>
        <time>2017-06-20T09:51:49Z</time>
      </trkpt>
      <trkpt lat="47.78979" lon="0.38416">
        <ele>156.2</ele>
        <time>2017-06-20T09:52:00Z</time>
      </trkpt>
      <trkpt lat="47.7897" lon="0.3842">
        <ele>156.3</ele>
        <time>2017-06-20T09:52:07Z</time>
      </trkpt>
      <trkpt lat="47.78965" lon="0.38423">
        <ele>156.6</ele>
        <time>2017-06-20T09:52:11Z</time>
      </trkpt>
      <trkpt lat="47.78952" lon="0.38429">
        <ele>157.2</ele>
        <time>2017-06-20T09:52:22Z</time>
      </trkpt>
      <trkpt lat="47.78938" lon="0.38433">
        <ele>158.1</ele>
        <time>2017-06-20T09:52:38Z</time>
      </trkpt>
      <trkpt lat="47.78925" lon="0.38438">
        <ele>158.8</ele>
        <time>2017-06-20T09:52:51Z</time>
      </trkpt>
      <trkpt lat="47.78912" lon="0.38444">
        <ele>159.4</ele>
        <time>2017-06-20T09:53:02Z</time>
      </trkpt>
      <trkpt lat="47.78911" lon="0.38445">
        <ele>159.4</ele>
        <time>2017-06-20T09:53:03Z</time>
      </trkpt>
      <trkpt lat="47.78905" lon="0.38449">
        <ele>159.2</ele>
        <time>2017-06-20T09:53:09Z</time>
      </trkpt>
      <trkpt lat="47.78907" lon="0.38445">
        <ele>158.6</ele>
        <time>2017-06-20T09:53:32Z</time>
      </trkpt>
      <trkpt lat="47.78892" lon="0.38449">
        <ele>157.2</ele>
        <time>2017-06-20T09:54:30Z</time>
      </trkpt>
      <trkpt lat="47.78878" lon="0.38455">
        <ele>156.6</ele>
        <time>2017-06-20T09:54:54Z</time>
      </trkpt>
      <trkpt lat="47.78864" lon="0.38459">
        <ele>156.3</ele>
        <time>2017-06-20T09:55:04Z</time>
      </trkpt>
      <trkpt lat="47.7886" lon="0.38463">
        <ele>156.3</ele>
        <time>2017-06-20T09:55:08Z</time>
      </trkpt>
      <trkpt lat="47.78852" lon="0.3847">
        <ele>156.2</ele>
        <time>2017-06-20T09:55:15Z</time>
      </trkpt>
      <trkpt lat="47.78845" lon="0.38489">
        <ele>156.2</ele>
        <time>2017-06-20T09:55:24Z</time>
      </trkpt>
      <trkpt lat="47.78831" lon="0.38495">
        <ele>156.2</ele>
        <time>2017-06-20T09:55:37Z</time>
      </trkpt>
      <trkpt lat="47.78817" lon="0.38498">
        <ele>156.1</ele>
        <time>2017-06-20T09:55:48Z</time>
      </trkpt>
      <trkpt lat="47.78805" lon="0.38512">
        <ele>156.1</ele>
        <time>2017-06-20T09:56:03Z</time>
      </trkpt>
      <trkpt lat="47.78794" lon="0.38522">
        <ele>156</ele>
        <time>2017-06-20T09:56:14Z</time>
      </trkpt>
      <trkpt lat="47.78781" lon="0.38533">
        <ele>156</ele>
        <time>2017-06-20T09:56:26Z</time>
      </trkpt>
      <trkpt lat="47.78772" lon="0.38549">
        <ele>155.9</ele>
        <time>2017-06-20T09:56:42Z</time>
      </trkpt>
      <trkpt lat="47.78761" lon="0.38564">
        <ele>155.9</ele>
        <time>2017-06-20T09:57:02Z</time>
      </trkpt>
      <trkpt lat="47.78748" lon="0.38572">
        <ele>155.8</ele>
        <time>2017-06-20T09:57:21Z</time>
      </trkpt>
      <trkpt lat="47.78736" lon="0.38583">
        <ele>155.8</ele>
        <time>2017-06-20T09:57:35Z</time>
      </trkpt>
      <trkpt lat="47.78722" lon="0.38593">
        <ele>155.7</ele>
        <time>2017-06-20T09:57:50Z</time>
      </trkpt>
      <trkpt lat="47.7871" lon="0.38606">
        <ele>155.7</ele>
        <time>2017-06-20T09:58:03Z</time>
      </trkpt>
      <trkpt lat="47.78697" lon="0.38609">
        <ele>155.6</ele>
        <time>2017-06-20T09:58:12Z</time>
      </trkpt>
      <trkpt lat="47.78684" lon="0.38617">
        <ele>155.6</ele>
        <time>2017-06-20T09:58:27Z</time>
      </trkpt>
      <trkpt lat="47.78676" lon="0.38633">
        <ele>155.5</ele>
        <time>2017-06-20T09:58:41Z</time>
      </trkpt>
      <trkpt lat="47.78667" lon="0.38649">
        <ele>155.5</ele>
        <time>2017-06-20T09:58:54Z</time>
      </trkpt>
      <trkpt lat="47.78655" lon="0.38662">
        <ele>155.4</ele>
        <time>2017-06-20T09:59:14Z</time>
      </trkpt>
      <trkpt lat="47.7865" lon="0.3868">
        <ele>155.4</ele>
        <time>2017-06-20T09:59:22Z</time>
      </trkpt>
      <trkpt lat="47.78654" lon="0.38701">
        <ele>155.4</ele>
        <time>2017-06-20T09:59:35Z</time>
      </trkpt>
      <trkpt lat="47.7865" lon="0.3872">
        <ele>155.3</ele>
        <time>2017-06-20T09:59:47Z</time>
      </trkpt>
      <trkpt lat="47.78655" lon="0.38739">
        <ele>155.3</ele>
        <time>2017-06-20T10:00:03Z</time>
      </trkpt>
      <trkpt lat="47.78655" lon="0.3876">
        <ele>155.2</ele>
        <time>2017-06-20T10:00:17Z</time>
      </trkpt>
      <trkpt lat="47.78654" lon="0.3878">
        <ele>155.2</ele>
        <time>2017-06-20T10:00:26Z</time>
      </trkpt>
      <trkpt lat="47.78655" lon="0.388">
        <ele>155.1</ele>
        <time>2017-06-20T10:00:40Z</time>
      </trkpt>
      <trkpt lat="47.78653" lon="0.38822">
        <ele>155.1</ele>
        <time>2017-06-20T10:00:51Z</time>
      </trkpt>
      <trkpt lat="47.78654" lon="0.38843">
        <ele>155.1</ele>
        <time>2017-06-20T10:01:03Z</time>
      </trkpt>
      <trkpt lat="47.78654" lon="0.38865">
        <ele>155</ele>
        <time>2017-06-20T10:01:14Z</time>
      </trkpt>
      <trkpt lat="47.78652" lon="0.38884">
        <ele>155</ele>
        <time>2017-06-20T10:01:23Z</time>
      </trkpt>
      <trkpt lat="47.78652" lon="0.38906">
        <ele>154.9</ele>
        <time>2017-06-20T10:01:36Z</time>
      </trkpt>
      <trkpt lat="47.78654" lon="0.38929">
        <ele>154.9</ele>
        <time>2017-06-20T10:01:53Z</time>
      </trkpt>
      <trkpt lat="47.78644" lon="0.38943">
        <ele>154.9</ele>
        <time>2017-06-20T10:02:02Z</time>
      </trkpt>
      <trkpt lat="47.7863" lon="0.38942">
        <ele>154.8</ele>
        <time>2017-06-20T10:02:15Z</time>
      </trkpt>
      <trkpt lat="47.78617" lon="0.38936">
        <ele>154.8</ele>
        <time>2017-06-20T10:02:28Z</time>
      </trkpt>
      <trkpt lat="47.78608" lon="0.38953">
        <ele>154.7</ele>
        <time>2017-06-20T10:02:40Z</time>
      </trkpt>
      <trkpt lat="47.78608" lon="0.38974">
        <ele>154.7</ele>
        <time>2017-06-20T10:02:51Z</time>
      </trkpt>
      <trkpt lat="47.78608" lon="0.38995">
        <ele>154.6</ele>
        <time>2017-06-20T10:03:02Z</time>
      </trkpt>
      <trkpt lat="47.78611" lon="0.39015">
        <ele>154.6</ele>
        <time>2017-06-20T10:03:13Z</time>
      </trkpt>
      <trkpt lat="47.78612" lon="0.39036">
        <ele>154.6</ele>
        <time>2017-06-20T10:03:28Z</time>
      </trkpt>
      <trkpt lat="47.78613" lon="0.39057">
        <ele>154.5</ele>
        <time>2017-06-20T10:03:40Z</time>
      </trkpt>
      <trkpt lat="47.78619" lon="0.39078">
        <ele>154.5</ele>
        <time>2017-06-20T10:03:51Z</time>
      </trkpt>
      <trkpt lat="47.7862" lon="0.39098">
        <ele>154.5</ele>
        <time>2017-06-20T10:04:00Z</time>
      </trkpt>
      <trkpt lat="47.78626" lon="0.39117">
        <ele>154.4</ele>
        <time>2017-06-20T10:04:14Z</time>
      </trkpt>
      <trkpt lat="47.78629" lon="0.3914">
        <ele>154.4</ele>
        <time>2017-06-20T10:04:27Z</time>
      </trkpt>
      <trkpt lat="47.78628" lon="0.39161">
        <ele>154.3</ele>
        <time>2017-06-20T10:04:35Z</time>
      </trkpt>
      <trkpt lat="47.78637" lon="0.39157">
        <ele>153.8</ele>
        <time>2017-06-20T10:07:22Z</time>
      </trkpt>
      <trkpt lat="47.7864" lon="0.39165">
        <ele>153.6</ele>
        <time>2017-06-20T10:08:07Z</time>
      </trkpt>
      <trkpt lat="47.78641" lon="0.39164">
        <ele>153.6</ele>
        <time>2017-06-20T10:08:11Z</time>
      </trkpt>
      <trkpt lat="47.78637" lon="0.39169">
        <ele>153.6</ele>
        <time>2017-06-20T10:08:19Z</time>
      </trkpt>
      <trkpt lat="47.78641" lon="0.39191">
        <ele>153.5</ele>
        <time>2017-06-20T10:08:40Z</time>
      </trkpt>
      <trkpt lat="47.78644" lon="0.39211">
        <ele>153.5</ele>
        <time>2017-06-20T10:08:52Z</time>
      </trkpt>
      <trkpt lat="47.78646" lon="0.39233">
        <ele>153.4</ele>
        <time>2017-06-20T10:09:02Z</time>
      </trkpt>
      <trkpt lat="47.78647" lon="0.39254">
        <ele>153.4</ele>
        <time>2017-06-20T10:09:10Z</time>
      </trkpt>
      <trkpt lat="47.78646" lon="0.39274">
        <ele>153.4</ele>
        <time>2017-06-20T10:09:18Z</time>
      </trkpt>
      <trkpt lat="47.78649" lon="0.39295">
        <ele>153.3</ele>
        <time>2017-06-20T10:09:28Z</time>
      </trkpt>
      <trkpt lat="47.78651" lon="0.39317">
        <ele>153.3</ele>
        <time>2017-06-20T10:09:37Z</time>
      </trkpt>
      <trkpt lat="47.78659" lon="0.39335">
        <ele>153.3</ele>
        <time>2017-06-20T10:09:47Z</time>
      </trkpt>
      <trkpt lat="47.78671" lon="0.39342">
        <ele>153.2</ele>
        <time>2017-06-20T10:09:58Z</time>
      </trkpt>
      <trkpt lat="47.78685" lon="0.39335">
        <ele>153.2</ele>
        <time>2017-06-20T10:10:09Z</time>
      </trkpt>
      <trkpt lat="47.78697" lon="0.39323">
        <ele>153.2</ele>
        <time>2017-06-20T10:10:23Z</time>
      </trkpt>
      <trkpt lat="47.78711" lon="0.39314">
        <ele>153.1</ele>
        <time>2017-06-20T10:10:35Z</time>
      </trkpt>
      <trkpt lat="47.78725" lon="0.39308">
        <ele>153.1</ele>
        <time>2017-06-20T10:10:48Z</time>
      </trkpt>
      <trkpt lat="47.78739" lon="0.39306">
        <ele>153</ele>
        <time>2017-06-20T10:11:03Z</time>
      </trkpt>
      <trkpt lat="47.7874" lon="0.39306">
        <ele>153</ele>
        <time>2017-06-20T10:11:04Z</time>
      </trkpt>
      <trkpt lat="47.78752" lon="0.39316">
        <ele>153.2</ele>
        <time>2017-06-20T10:11:18Z</time>
      </trkpt>
      <trkpt lat="47.78765" lon="0.39323">
        <ele>153.4</ele>
        <time>2017-06-20T10:11:29Z</time>
      </trkpt>
      <trkpt lat="47.78779" lon="0.39332">
        <ele>153.6</ele>
        <time>2017-06-20T10:11:42Z</time>
      </trkpt>
      <trkpt lat="47.78791" lon="0.3934">
        <ele>153.8</ele>
        <time>2017-06-20T10:11:53Z</time>
      </trkpt>
      <trkpt lat="47.78804" lon="0.39345">
        <ele>154</ele>
        <time>2017-06-20T10:12:04Z</time>
      </trkpt>
      <trkpt lat="47.78818" lon="0.3935">
        <ele>154.2</ele>
        <time>2017-06-20T10:12:15Z</time>
      </trkpt>
      <trkpt lat="47.7883" lon="0.39359">
        <ele>154.4</ele>
        <time>2017-06-20T10:12:26Z</time>
      </trkpt>
      <trkpt lat="47.78835" lon="0.3938">
        <ele>154.6</ele>
        <time>2017-06-20T10:12:40Z</time>
      </trkpt>
      <trkpt lat="47.78838" lon="0.39403">
        <ele>154.8</ele>
        <time>2017-06-20T10:12:52Z</time>
      </trkpt>
      <trkpt lat="47.7885" lon="0.39415">
        <ele>155</ele>
        <time>2017-06-20T10:13:07Z</time>
      </trkpt>
      <trkpt lat="47.78863" lon="0.39422">
        <ele>155.2</ele>
        <time>2017-06-20T10:13:19Z</time>
      </trkpt>
      <trkpt lat="47.78876" lon="0.39429">
        <ele>155.5</ele>
        <time>2017-06-20T10:13:34Z</time>
      </trkpt>
      <trkpt lat="47.78889" lon="0.39437">
        <ele>155.7</ele>
        <time>2017-06-20T10:13:47Z</time>
      </trkpt>
      <trkpt lat="47.78903" lon="0.39444">
        <ele>155.9</ele>
        <time>2017-06-20T10:13:59Z</time>
      </trkpt>
      <trkpt lat="47.78916" lon="0.39447">
        <ele>156.1</ele>
        <time>2017-06-20T10:14:11Z</time>
      </trkpt>
      <trkpt lat="47.78919" lon="0.39448">
        <ele>156.1</ele>
        <time>2017-06-20T10:14:13Z</time>
      </trkpt>
      <trkpt lat="47.78931" lon="0.39449">
        <ele>156.4</ele>
        <time>2017-06-20T10:14:25Z</time>
      </trkpt>
      <trkpt lat="47.78945" lon="0.39449">
        <ele>156.7</ele>
        <time>2017-06-20T10:14:38Z</time>
      </trkpt>
      <trkpt lat="47.78958" lon="0.39453">
        <ele>157</ele>
        <time>2017-06-20T10:14:52Z</time>
      </trkpt>
      <trkpt lat="47.78971" lon="0.39463">
        <ele>157.3</ele>
        <time>2017-06-20T10:15:08Z</time>
      </trkpt>
      <trkpt lat="47.78982" lon="0.39478">
        <ele>157.6</ele>
        <time>2017-06-20T10:15:21Z</time>
      </trkpt>
      <trkpt lat="47.7899" lon="0.39494">
        <ele>158</ele>
        <time>2017-06-20T10:15:36Z</time>
      </trkpt>
      <trkpt lat="47.79002" lon="0.39505">
        <ele>158.2</ele>
        <time>2017-06-20T10:15:49Z</time>
      </trkpt>
      <trkpt lat="47.79014" lon="0.39516">
        <ele>158.5</ele>
        <time>2017-06-20T10:16:02Z</time>
      </trkpt>
      <trkpt lat="47.79026" lon="0.39526">
        <ele>158.8</ele>
        <time>2017-06-20T10:16:14Z</time>
      </trkpt>
      <trkpt lat="47.79039" lon="0.39535">
        <ele>159.1</ele>
        <time>2017-06-20T10:16:27Z</time>
      </trkpt>
      <trkpt lat="47.79042" lon="0.39539">
        <ele>159.2</ele>
        <time>2017-06-20T10:16:31Z</time>
      </trkpt>
      <trkpt lat="47.79049" lon="0.3955">
        <ele>159.6</ele>
        <time>2017-06-20T10:16:41Z</time>
      </trkpt>
      <trkpt lat="47.79061" lon="0.39558">
        <ele>160.1</ele>
        <time>2017-06-20T10:16:53Z</time>
      </trkpt>
      <trkpt lat="47.79073" lon="0.3957">
        <ele>160.9</ele>
        <time>2017-06-20T10:17:11Z</time>
      </trkpt>
      <trkpt lat="47.79083" lon="0.39584">
        <ele>161.5</ele>
        <time>2017-06-20T10:17:27Z</time>
      </trkpt>
      <trkpt lat="47.79097" lon="0.39591">
        <ele>162.2</ele>
        <time>2017-06-20T10:17:42Z</time>
      </trkpt>
      <trkpt lat="47.79104" lon="0.39596">
        <ele>162.5</ele>
        <time>2017-06-20T10:17:49Z</time>
      </trkpt>
      <trkpt lat="47.7911" lon="0.396">
        <ele>163</ele>
        <time>2017-06-20T10:17:56Z</time>
      </trkpt>
      <trkpt lat="47.79124" lon="0.39606">
        <ele>163.8</ele>
        <time>2017-06-20T10:18:07Z</time>
      </trkpt>
      <trkpt lat="47.79137" lon="0.39611">
        <ele>165.1</ele>
        <time>2017-06-20T10:18:23Z</time>
      </trkpt>
      <trkpt lat="47.79151" lon="0.39617">
        <ele>166.2</ele>
        <time>2017-06-20T10:18:38Z</time>
      </trkpt>
      <trkpt lat="47.79151" lon="0.39617">
        <ele>166.2</ele>
        <time>2017-06-20T10:18:39Z</time>
      </trkpt>
      <trkpt lat="47.79164" lon="0.39621">
        <ele>166.5</ele>
        <time>2017-06-20T10:18:53Z</time>
      </trkpt>
      <trkpt lat="47.79178" lon="0.39631">
        <ele>166.8</ele>
        <time>2017-06-20T10:19:08Z</time>
      </trkpt>
      <trkpt lat="47.79191" lon="0.39637">
        <ele>167</ele>
        <time>2017-06-20T10:19:20Z</time>
      </trkpt>
      <trkpt lat="47.79204" lon="0.39643">
        <ele>167.3</ele>
        <time>2017-06-20T10:19:32Z</time>
      </trkpt>
      <trkpt lat="47.79219" lon="0.39644">
        <ele>167.6</ele>
        <time>2017-06-20T10:19:47Z</time>
      </trkpt>
      <trkpt lat="47.79232" lon="0.3965">
        <ele>167.9</ele>
        <time>2017-06-20T10:20:03Z</time>
      </trkpt>
      <trkpt lat="47.79246" lon="0.39656">
        <ele>168.1</ele>
        <time>2017-06-20T10:20:17Z</time>
      </trkpt>
      <trkpt lat="47.79259" lon="0.39664">
        <ele>168.4</ele>
        <time>2017-06-20T10:20:32Z</time>
      </trkpt>
      <trkpt lat="47.79272" lon="0.39671">
        <ele>168.7</ele>
        <time>2017-06-20T10:20:44Z</time>
      </trkpt>
      <trkpt lat="47.79286" lon="0.39676">
        <ele>169</ele>
        <time>2017-06-20T10:20:59Z</time>
      </trkpt>
      <trkpt lat="47.793" lon="0.39683">
        <ele>169.2</ele>
        <time>2017-06-20T10:21:14Z</time>
      </trkpt>
      <trkpt lat="47.79314" lon="0.39688">
        <ele>169.5</ele>
        <time>2017-06-20T10:21:26Z</time>
      </trkpt>
      <trkpt lat="47.79315" lon="0.39688">
        <ele>169.5</ele>
        <time>2017-06-20T10:21:27Z</time>
      </trkpt>
      <trkpt lat="47.79324" lon="0.3968">
        <ele>168.4</ele>
        <time>2017-06-20T10:21:40Z</time>
      </trkpt>
      <trkpt lat="47.7933" lon="0.39667">
        <ele>167.5</ele>
        <time>2017-06-20T10:21:51Z</time>
      </trkpt>
      <trkpt lat="47.79329" lon="0.39662">
        <ele>167.1</ele>
        <time>2017-06-20T10:21:56Z</time>
      </trkpt>
      <trkpt lat="47.79333" lon="0.39663">
        <ele>166.7</ele>
        <time>2017-06-20T10:22:01Z</time>
      </trkpt>
      <trkpt lat="47.7933" lon="0.39669">
        <ele>166</ele>
        <time>2017-06-20T10:22:10Z</time>
      </trkpt>
      <trkpt lat="47.79328" lon="0.39674">
        <ele>166.1</ele>
        <time>2017-06-20T10:22:18Z</time>
      </trkpt>
      <trkpt lat="47.79336" lon="0.39655">
        <ele>166.3</ele>
        <time>2017-06-20T10:22:47Z</time>
      </trkpt>
      <trkpt lat="47.79332" lon="0.39658">
        <ele>166.4</ele>
        <time>2017-06-20T10:22:57Z</time>
      </trkpt>
      <trkpt lat="47.79343" lon="0.3965">
        <ele>166.6</ele>
        <time>2017-06-20T10:23:14Z</time>
      </trkpt>
      <trkpt lat="47.79346" lon="0.39653">
        <ele>166.7</ele>
        <time>2017-06-20T10:23:26Z</time>
      </trkpt>
      <trkpt lat="47.79354" lon="0.39644">
        <ele>166.7</ele>
        <time>2017-06-20T10:23:33Z</time>
      </trkpt>
      <trkpt lat="47.79353" lon="0.39639">
        <ele>166.8</ele>
        <time>2017-06-20T10:23:42Z</time>
      </trkpt>
      <trkpt lat="47.79342" lon="0.39648">
        <ele>166.9</ele>
        <time>2017-06-20T10:23:51Z</time>
      </trkpt>
      <trkpt lat="47.79338" lon="0.3966">
        <ele>167.3</ele>
        <time>2017-06-20T10:24:32Z</time>
      </trkpt>
      <trkpt lat="47.79332" lon="0.39657">
        <ele>167.9</ele>
        <time>2017-06-20T10:25:48Z</time>
      </trkpt>
      <trkpt lat="47.79333" lon="0.3966">
        <ele>168.2</ele>
        <time>2017-06-20T10:26:15Z</time>
      </trkpt>
      <trkpt lat="47.79331" lon="0.39661">
        <ele>169.5</ele>
        <time>2017-06-20T10:28:45Z</time>
      </trkpt>
      <trkpt lat="47.79329" lon="0.39663">
        <ele>166.5</ele>
        <time>2017-06-20T10:30:58Z</time>
      </trkpt>
      <trkpt lat="47.79328" lon="0.39664">
        <ele>169.5</ele>
        <time>2017-06-20T10:32:02Z</time>
      </trkpt>
      <trkpt lat="47.79327" lon="0.39665">
        <ele>166.5</ele>
        <time>2017-06-20T10:34:03Z</time>
      </trkpt>
      <trkpt lat="47.79326" lon="0.39667">
        <ele>169.6</ele>
        <time>2017-06-20T10:35:49Z</time>
      </trkpt>
      <trkpt lat="47.79324" lon="0.3965">
        <ele>175.3</ele>
        <time>2017-06-20T10:39:27Z</time>
      </trkpt>
      <trkpt lat="47.79324" lon="0.3965">
        <ele>165.5</ele>
        <time>2017-06-20T10:39:31Z</time>
      </trkpt>
      <trkpt lat="47.79325" lon="0.3965">
        <ele>164</ele>
        <time>2017-06-20T10:39:32Z</time>
      </trkpt>
      <trkpt lat="47.79332" lon="0.39654">
        <ele>165.3</ele>
        <time>2017-06-20T10:40:28Z</time>
      </trkpt>
      <trkpt lat="47.79334" lon="0.39655">
        <ele>164.4</ele>
        <time>2017-06-20T10:40:39Z</time>
      </trkpt>
      <trkpt lat="47.79338" lon="0.39656">
        <ele>166.1</ele>
        <time>2017-06-20T10:41:04Z</time>
      </trkpt>
      <trkpt lat="47.79337" lon="0.39654">
        <ele>166.6</ele>
        <time>2017-06-20T10:41:11Z</time>
      </trkpt>
      <trkpt lat="47.79328" lon="0.39663">
        <ele>168.6</ele>
        <time>2017-06-20T10:41:41Z</time>
      </trkpt>
      <trkpt lat="47.79322" lon="0.39668">
        <ele>168.4</ele>
        <time>2017-06-20T10:42:00Z</time>
      </trkpt>
      <trkpt lat="47.79325" lon="0.39664">
        <ele>167.7</ele>
        <time>2017-06-20T10:43:06Z</time>
      </trkpt>
      <trkpt lat="47.79318" lon="0.39665">
        <ele>167.5</ele>
        <time>2017-06-20T10:43:28Z</time>
      </trkpt>
      <trkpt lat="47.79327" lon="0.39681">
        <ele>166.7</ele>
        <time>2017-06-20T10:44:46Z</time>
      </trkpt>
      <trkpt lat="47.79335" lon="0.39698">
        <ele>166.5</ele>
        <time>2017-06-20T10:45:03Z</time>
      </trkpt>
      <trkpt lat="47.79348" lon="0.3969">
        <ele>166.4</ele>
        <time>2017-06-20T10:45:12Z</time>
      </trkpt>
      <trkpt lat="47.79351" lon="0.39686">
        <ele>166.3</ele>
        <time>2017-06-20T10:45:29Z</time>
      </trkpt>
      <trkpt lat="47.79337" lon="0.39693">
        <ele>166.2</ele>
        <time>2017-06-20T10:45:38Z</time>
      </trkpt>
      <trkpt lat="47.79328" lon="0.3971">
        <ele>166.1</ele>
        <time>2017-06-20T10:45:47Z</time>
      </trkpt>
      <trkpt lat="47.79319" lon="0.39727">
        <ele>166</ele>
        <time>2017-06-20T10:45:56Z</time>
      </trkpt>
      <trkpt lat="47.79307" lon="0.39739">
        <ele>165.9</ele>
        <time>2017-06-20T10:46:05Z</time>
      </trkpt>
      <trkpt lat="47.79296" lon="0.39753">
        <ele>165.8</ele>
        <time>2017-06-20T10:46:14Z</time>
      </trkpt>
      <trkpt lat="47.79284" lon="0.39766">
        <ele>165.7</ele>
        <time>2017-06-20T10:46:24Z</time>
      </trkpt>
      <trkpt lat="47.79273" lon="0.3978">
        <ele>165.6</ele>
        <time>2017-06-20T10:46:33Z</time>
      </trkpt>
      <trkpt lat="47.79261" lon="0.39793">
        <ele>165.5</ele>
        <time>2017-06-20T10:46:42Z</time>
      </trkpt>
      <trkpt lat="47.79255" lon="0.39801">
        <ele>165.4</ele>
        <time>2017-06-20T10:46:54Z</time>
      </trkpt>
      <trkpt lat="47.7925" lon="0.39807">
        <ele>165.1</ele>
        <time>2017-06-20T10:47:02Z</time>
      </trkpt>
      <trkpt lat="47.7924" lon="0.39823">
        <ele>164.7</ele>
        <time>2017-06-20T10:47:12Z</time>
      </trkpt>
      <trkpt lat="47.79237" lon="0.39845">
        <ele>164.3</ele>
        <time>2017-06-20T10:47:22Z</time>
      </trkpt>
      <trkpt lat="47.79235" lon="0.39866">
        <ele>163.9</ele>
        <time>2017-06-20T10:47:31Z</time>
      </trkpt>
      <trkpt lat="47.79245" lon="0.39884">
        <ele>163.5</ele>
        <time>2017-06-20T10:47:40Z</time>
      </trkpt>
      <trkpt lat="47.79252" lon="0.39902">
        <ele>163.1</ele>
        <time>2017-06-20T10:47:51Z</time>
      </trkpt>
      <trkpt lat="47.79261" lon="0.39917">
        <ele>162.7</ele>
        <time>2017-06-20T10:48:00Z</time>
      </trkpt>
      <trkpt lat="47.79271" lon="0.3993">
        <ele>162.3</ele>
        <time>2017-06-20T10:48:10Z</time>
      </trkpt>
      <trkpt lat="47.79273" lon="0.39932">
        <ele>162.2</ele>
        <time>2017-06-20T10:48:12Z</time>
      </trkpt>
      <trkpt lat="47.79277" lon="0.39936">
        <ele>161.9</ele>
        <time>2017-06-20T10:48:19Z</time>
      </trkpt>
      <trkpt lat="47.79284" lon="0.39943">
        <ele>161.4</ele>
        <time>2017-06-20T10:48:32Z</time>
      </trkpt>
      <trkpt lat="47.79289" lon="0.39963">
        <ele>161</ele>
        <time>2017-06-20T10:48:42Z</time>
      </trkpt>
      <trkpt lat="47.79292" lon="0.39985">
        <ele>160.6</ele>
        <time>2017-06-20T10:48:52Z</time>
      </trkpt>
      <trkpt lat="47.79296" lon="0.40004">
        <ele>160.1</ele>
        <time>2017-06-20T10:49:03Z</time>
      </trkpt>
      <trkpt lat="47.79296" lon="0.40025">
        <ele>159.6</ele>
        <time>2017-06-20T10:49:16Z</time>
      </trkpt>
      <trkpt lat="47.7929" lon="0.40043">
        <ele>158.9</ele>
        <time>2017-06-20T10:49:33Z</time>
      </trkpt>
      <trkpt lat="47.79289" lon="0.40045">
        <ele>158.8</ele>
        <time>2017-06-20T10:49:35Z</time>
      </trkpt>
      <trkpt lat="47.79279" lon="0.40061">
        <ele>158.4</ele>
        <time>2017-06-20T10:49:44Z</time>
      </trkpt>
      <trkpt lat="47.79271" lon="0.40078">
        <ele>158</ele>
        <time>2017-06-20T10:49:55Z</time>
      </trkpt>
      <trkpt lat="47.79263" lon="0.40096">
        <ele>157.6</ele>
        <time>2017-06-20T10:50:06Z</time>
      </trkpt>
      <trkpt lat="47.79254" lon="0.40113">
        <ele>157.1</ele>
        <time>2017-06-20T10:50:18Z</time>
      </trkpt>
      <trkpt lat="47.79249" lon="0.40133">
        <ele>156.6</ele>
        <time>2017-06-20T10:50:29Z</time>
      </trkpt>
      <trkpt lat="47.79251" lon="0.40153">
        <ele>156.2</ele>
        <time>2017-06-20T10:50:39Z</time>
      </trkpt>
      <trkpt lat="47.79255" lon="0.40167">
        <ele>155.9</ele>
        <time>2017-06-20T10:50:48Z</time>
      </trkpt>
      <trkpt lat="47.79256" lon="0.40171">
        <ele>156.3</ele>
        <time>2017-06-20T10:50:51Z</time>
      </trkpt>
      <trkpt lat="47.79262" lon="0.4019">
        <ele>157.6</ele>
        <time>2017-06-20T10:51:03Z</time>
      </trkpt>
      <trkpt lat="47.79267" lon="0.4021">
        <ele>158.9</ele>
        <time>2017-06-20T10:51:15Z</time>
      </trkpt>
      <trkpt lat="47.7927" lon="0.40219">
        <ele>160</ele>
        <time>2017-06-20T10:51:26Z</time>
      </trkpt>
      <trkpt lat="47.79272" lon="0.40229">
        <ele>158.3</ele>
        <time>2017-06-20T10:51:38Z</time>
      </trkpt>
      <trkpt lat="47.79271" lon="0.4025">
        <ele>155.9</ele>
        <time>2017-06-20T10:51:54Z</time>
      </trkpt>
      <trkpt lat="47.79271" lon="0.40251">
        <ele>155.8</ele>
        <time>2017-06-20T10:51:55Z</time>
      </trkpt>
      <trkpt lat="47.79266" lon="0.40269">
        <ele>155.5</ele>
        <time>2017-06-20T10:52:09Z</time>
      </trkpt>
      <trkpt lat="47.79258" lon="0.40286">
        <ele>155.1</ele>
        <time>2017-06-20T10:52:31Z</time>
      </trkpt>
      <trkpt lat="47.7925" lon="0.40306">
        <ele>154.7</ele>
        <time>2017-06-20T10:52:48Z</time>
      </trkpt>
      <trkpt lat="47.79241" lon="0.40322">
        <ele>154.5</ele>
        <time>2017-06-20T10:52:58Z</time>
      </trkpt>
      <trkpt lat="47.7923" lon="0.40334">
        <ele>154.3</ele>
        <time>2017-06-20T10:53:07Z</time>
      </trkpt>
      <trkpt lat="47.79219" lon="0.40349">
        <ele>153.9</ele>
        <time>2017-06-20T10:53:30Z</time>
      </trkpt>
      <trkpt lat="47.79209" lon="0.40362">
        <ele>153.7</ele>
        <time>2017-06-20T10:53:39Z</time>
      </trkpt>
      <trkpt lat="47.79198" lon="0.40375">
        <ele>153.5</ele>
        <time>2017-06-20T10:53:48Z</time>
      </trkpt>
      <trkpt lat="47.79187" lon="0.4039">
        <ele>153.2</ele>
        <time>2017-06-20T10:53:59Z</time>
      </trkpt>
      <trkpt lat="47.79177" lon="0.40402">
        <ele>153.1</ele>
        <time>2017-06-20T10:54:08Z</time>
      </trkpt>
      <trkpt lat="47.79167" lon="0.40419">
        <ele>152.6</ele>
        <time>2017-06-20T10:54:28Z</time>
      </trkpt>
      <trkpt lat="47.79164" lon="0.40433">
        <ele>152.4</ele>
        <time>2017-06-20T10:54:35Z</time>
      </trkpt>
      <trkpt lat="47.79162" lon="0.4044">
        <ele>151.7</ele>
        <time>2017-06-20T10:54:38Z</time>
      </trkpt>
      <trkpt lat="47.7916" lon="0.40463">
        <ele>149.3</ele>
        <time>2017-06-20T10:54:48Z</time>
      </trkpt>
      <trkpt lat="47.7916" lon="0.40468">
        <ele>148.7</ele>
        <time>2017-06-20T10:54:51Z</time>
      </trkpt>
      <trkpt lat="47.79159" lon="0.40483">
        <ele>148.3</ele>
        <time>2017-06-20T10:54:59Z</time>
      </trkpt>
      <trkpt lat="47.79159" lon="0.40504">
        <ele>147.7</ele>
        <time>2017-06-20T10:55:13Z</time>
      </trkpt>
      <trkpt lat="47.79156" lon="0.40525">
        <ele>146.5</ele>
        <time>2017-06-20T10:55:39Z</time>
      </trkpt>
      <trkpt lat="47.79155" lon="0.40546">
        <ele>146</ele>
        <time>2017-06-20T10:55:50Z</time>
      </trkpt>
      <trkpt lat="47.79152" lon="0.40567">
        <ele>145.6</ele>
        <time>2017-06-20T10:55:59Z</time>
      </trkpt>
      <trkpt lat="47.7915" lon="0.40588">
        <ele>145.1</ele>
        <time>2017-06-20T10:56:09Z</time>
      </trkpt>
      <trkpt lat="47.7915" lon="0.40592">
        <ele>145</ele>
        <time>2017-06-20T10:56:11Z</time>
      </trkpt>
      <trkpt lat="47.79148" lon="0.4061">
        <ele>143.5</ele>
        <time>2017-06-20T10:56:20Z</time>
      </trkpt>
      <trkpt lat="47.79145" lon="0.4063">
        <ele>141.8</ele>
        <time>2017-06-20T10:56:31Z</time>
      </trkpt>
      <trkpt lat="47.79145" lon="0.40633">
        <ele>141.5</ele>
        <time>2017-06-20T10:56:33Z</time>
      </trkpt>
      <trkpt lat="47.79146" lon="0.4065">
        <ele>141.6</ele>
        <time>2017-06-20T10:56:44Z</time>
      </trkpt>
      <trkpt lat="47.79146" lon="0.4067">
        <ele>141.7</ele>
        <time>2017-06-20T10:56:55Z</time>
      </trkpt>
      <trkpt lat="47.79146" lon="0.40692">
        <ele>141.9</ele>
        <time>2017-06-20T10:57:07Z</time>
      </trkpt>
      <trkpt lat="47.79145" lon="0.40712">
        <ele>142</ele>
        <time>2017-06-20T10:57:19Z</time>
      </trkpt>
      <trkpt lat="47.79144" lon="0.40731">
        <ele>142.3</ele>
        <time>2017-06-20T10:57:46Z</time>
      </trkpt>
      <trkpt lat="47.79146" lon="0.40733">
        <ele>143.2</ele>
        <time>2017-06-20T10:59:10Z</time>
      </trkpt>
      <trkpt lat="47.79136" lon="0.40747">
        <ele>143.3</ele>
        <time>2017-06-20T10:59:22Z</time>
      </trkpt>
      <trkpt lat="47.79125" lon="0.4076">
        <ele>143.5</ele>
        <time>2017-06-20T10:59:35Z</time>
      </trkpt>
      <trkpt lat="47.79114" lon="0.40772">
        <ele>143.7</ele>
        <time>2017-06-20T10:59:54Z</time>
      </trkpt>
      <trkpt lat="47.79104" lon="0.40787">
        <ele>143.8</ele>
        <time>2017-06-20T11:00:07Z</time>
      </trkpt>
      <trkpt lat="47.79093" lon="0.40802">
        <ele>144</ele>
        <time>2017-06-20T11:00:22Z</time>
      </trkpt>
      <trkpt lat="47.79085" lon="0.40818">
        <ele>144.2</ele>
        <time>2017-06-20T11:00:35Z</time>
      </trkpt>
      <trkpt lat="47.79089" lon="0.40838">
        <ele>144.3</ele>
        <time>2017-06-20T11:00:49Z</time>
      </trkpt>
      <trkpt lat="47.79094" lon="0.40857">
        <ele>144.5</ele>
        <time>2017-06-20T11:01:04Z</time>
      </trkpt>
      <trkpt lat="47.79094" lon="0.40864">
        <ele>144.6</ele>
        <time>2017-06-20T11:01:09Z</time>
      </trkpt>
      <trkpt lat="47.79095" lon="0.40877">
        <ele>145.4</ele>
        <time>2017-06-20T11:01:18Z</time>
      </trkpt>
      <trkpt lat="47.79102" lon="0.40897">
        <ele>146.8</ele>
        <time>2017-06-20T11:01:34Z</time>
      </trkpt>
      <trkpt lat="47.79104" lon="0.40917">
        <ele>147.9</ele>
        <time>2017-06-20T11:01:47Z</time>
      </trkpt>
      <trkpt lat="47.79104" lon="0.4092">
        <ele>148.1</ele>
        <time>2017-06-20T11:01:49Z</time>
      </trkpt>
      <trkpt lat="47.79103" lon="0.40938">
        <ele>149.8</ele>
        <time>2017-06-20T11:01:59Z</time>
      </trkpt>
      <trkpt lat="47.791" lon="0.40958">
        <ele>152</ele>
        <time>2017-06-20T11:02:12Z</time>
      </trkpt>
      <trkpt lat="47.79099" lon="0.40967">
        <ele>152.1</ele>
        <time>2017-06-20T11:02:18Z</time>
      </trkpt>
      <trkpt lat="47.79097" lon="0.40978">
        <ele>152.5</ele>
        <time>2017-06-20T11:02:26Z</time>
      </trkpt>
      <trkpt lat="47.79098" lon="0.40984">
        <ele>152.7</ele>
        <time>2017-06-20T11:02:30Z</time>
      </trkpt>
      <trkpt lat="47.791" lon="0.40991">
        <ele>154.2</ele>
        <time>2017-06-20T11:02:35Z</time>
      </trkpt>
      <trkpt lat="47.79101" lon="0.40998">
        <ele>153.9</ele>
        <time>2017-06-20T11:02:40Z</time>
      </trkpt>
      <trkpt lat="47.79101" lon="0.41">
        <ele>153.9</ele>
        <time>2017-06-20T11:02:41Z</time>
      </trkpt>
      <trkpt lat="47.79102" lon="0.41009">
        <ele>154.5</ele>
        <time>2017-06-20T11:02:46Z</time>
      </trkpt>
      <trkpt lat="47.79102" lon="0.41019">
        <ele>155.1</ele>
        <time>2017-06-20T11:02:52Z</time>
      </trkpt>
      <trkpt lat="47.79102" lon="0.4104">
        <ele>155.8</ele>
        <time>2017-06-20T11:03:09Z</time>
      </trkpt>
      <trkpt lat="47.79101" lon="0.4106">
        <ele>156.4</ele>
        <time>2017-06-20T11:03:23Z</time>
      </trkpt>
      <trkpt lat="47.79104" lon="0.4108">
        <ele>156.9</ele>
        <time>2017-06-20T11:03:34Z</time>
      </trkpt>
      <trkpt lat="47.79106" lon="0.411">
        <ele>157.4</ele>
        <time>2017-06-20T11:03:47Z</time>
      </trkpt>
      <trkpt lat="47.79095" lon="0.41114">
        <ele>157.9</ele>
        <time>2017-06-20T11:03:59Z</time>
      </trkpt>
      <trkpt lat="47.79081" lon="0.41121">
        <ele>158.3</ele>
        <time>2017-06-20T11:04:10Z</time>
      </trkpt>
      <trkpt lat="47.7907" lon="0.41132">
        <ele>157.8</ele>
        <time>2017-06-20T11:04:21Z</time>
      </trkpt>
      <trkpt lat="47.79066" lon="0.41149">
        <ele>157.3</ele>
        <time>2017-06-20T11:04:31Z</time>
      </trkpt>
      <trkpt lat="47.79071" lon="0.41168">
        <ele>156.7</ele>
        <time>2017-06-20T11:04:44Z</time>
      </trkpt>
      <trkpt lat="47.79062" lon="0.41184">
        <ele>156.2</ele>
        <time>2017-06-20T11:04:56Z</time>
      </trkpt>
      <trkpt lat="47.79064" lon="0.41204">
        <ele>155.6</ele>
        <time>2017-06-20T11:05:08Z</time>
      </trkpt>
      <trkpt lat="47.79063" lon="0.41218">
        <ele>155.2</ele>
        <time>2017-06-20T11:05:16Z</time>
      </trkpt>
      <trkpt lat="47.79062" lon="0.41225">
        <ele>154.9</ele>
        <time>2017-06-20T11:05:20Z</time>
      </trkpt>
      <trkpt lat="47.79058" lon="0.41248">
        <ele>153.3</ele>
        <time>2017-06-20T11:05:41Z</time>
      </trkpt>
      <trkpt lat="47.79046" lon="0.4126">
        <ele>152.7</ele>
        <time>2017-06-20T11:05:49Z</time>
      </trkpt>
      <trkpt lat="47.79041" lon="0.41269">
        <ele>152.3</ele>
        <time>2017-06-20T11:05:55Z</time>
      </trkpt>
      <trkpt lat="47.79051" lon="0.41282">
        <ele>151.8</ele>
        <time>2017-06-20T11:06:02Z</time>
      </trkpt>
      <trkpt lat="47.79053" lon="0.41284">
        <ele>151.3</ele>
        <time>2017-06-20T11:06:07Z</time>
      </trkpt>
      <trkpt lat="47.7906" lon="0.41296">
        <ele>147.4</ele>
        <time>2017-06-20T11:06:29Z</time>
      </trkpt>
      <trkpt lat="47.79061" lon="0.41297">
        <ele>147.3</ele>
        <time>2017-06-20T11:06:31Z</time>
      </trkpt>
      <trkpt lat="47.79067" lon="0.41315">
        <ele>146.6</ele>
        <time>2017-06-20T11:06:50Z</time>
      </trkpt>
      <trkpt lat="47.79063" lon="0.41335">
        <ele>145.5</ele>
        <time>2017-06-20T11:07:21Z</time>
      </trkpt>
      <trkpt lat="47.79054" lon="0.41352">
        <ele>144.4</ele>
        <time>2017-06-20T11:07:51Z</time>
      </trkpt>
      <trkpt lat="47.7905" lon="0.41357">
        <ele>144.3</ele>
        <time>2017-06-20T11:07:54Z</time>
      </trkpt>
      <trkpt lat="47.79038" lon="0.41359">
        <ele>144.2</ele>
        <time>2017-06-20T11:07:57Z</time>
      </trkpt>
      <trkpt lat="47.79045" lon="0.41347">
        <ele>143.6</ele>
        <time>2017-06-20T11:08:13Z</time>
      </trkpt>
      <trkpt lat="47.79047" lon="0.41344">
        <ele>143.8</ele>
        <time>2017-06-20T11:08:18Z</time>
      </trkpt>
      <trkpt lat="47.79034" lon="0.41354">
        <ele>144.1</ele>
        <time>2017-06-20T11:08:30Z</time>
      </trkpt>
      <trkpt lat="47.79025" lon="0.41352">
        <ele>144.3</ele>
        <time>2017-06-20T11:08:34Z</time>
      </trkpt>
      <trkpt lat="47.79028" lon="0.41351">
        <ele>144.5</ele>
        <time>2017-06-20T11:08:44Z</time>
      </trkpt>
    </trkseg>
  </trk>
</gpx>